<?xml version="1.0" encoding="UTF-8" standalone="no" ?><gpx xmlns="http://www.topografix.com/GPX/1/1" xmlns:gpxx="http://www.garmin.com/xmlschemas/GpxExtensions/v3" xmlns:gpxtrkx="http://www.garmin.com/xmlschemas/TrackStatsExtension/v1" xmlns:wptx1="http://www.garmin.com/xmlschemas/WaypointExtension/v1" xmlns:gpxtpx="http://www.garmin.com/xmlschemas/TrackPointExtension/v1" creator="eTrex 20" version="1.1" xmlns:xsi="http://www.w3.org/2001/XMLSchema-instance" xsi:schemaLocation="http://www.topografix.com/GPX/1/1 http://www.topografix.com/GPX/1/1/gpx.xsd http://www.garmin.com/xmlschemas/GpxExtensions/v3 http://www8.garmin.com/xmlschemas/GpxExtensionsv3.xsd http://www.garmin.com/xmlschemas/TrackStatsExtension/v1 http://www8.garmin.com/xmlschemas/TrackStatsExtension.xsd http://www.garmin.com/xmlschemas/WaypointExtension/v1 http://www8.garmin.com/xmlschemas/WaypointExtensionv1.xsd http://www.garmin.com/xmlschemas/TrackPointExtension/v1 http://www.garmin.com/xmlschemas/TrackPointExtensionv1.xsd"><metadata><link href="http://www.garmin.com"><text>Garmin International</text></link><time>2015-03-30T11:23:31Z</time></metadata><trk><name>2015-03-30 14:23:21</name><extensions><gpxx:TrackExtension><gpxx:DisplayColor>Cyan</gpxx:DisplayColor></gpxx:TrackExtension><gpxtrkx:TrackStatsExtension><gpxtrkx:Distance>119303</gpxtrkx:Distance></gpxtrkx:TrackStatsExtension></extensions><trkseg><trkpt lat="12.6205339562" lon="37.4682541564"><ele>2340.95</ele><time>2015-03-29T07:39:03Z</time></trkpt><trkpt lat="12.6205338724" lon="37.4682638794"><ele>2341.43</ele><time>2015-03-29T07:39:10Z</time></trkpt><trkpt lat="12.6514151506" lon="37.4857978150"><ele>2289.52</ele><time>2015-03-30T07:58:47Z</time></trkpt><trkpt lat="12.6520073321" lon="37.4859652016"><ele>2287.11</ele><time>2015-03-30T07:58:57Z</time></trkpt><trkpt lat="12.6529585943" lon="37.4855715875"><ele>2283.75</ele><time>2015-03-30T07:59:11Z</time></trkpt><trkpt lat="12.6542529278" lon="37.4849026278"><ele>2291.44</ele><time>2015-03-30T07:59:32Z</time></trkpt><trkpt lat="12.6552160922" lon="37.4847579561"><ele>2298.65</ele><time>2015-03-30T07:59:45Z</time></trkpt><trkpt lat="12.6563243475" lon="37.4850960821"><ele>2306.82</ele><time>2015-03-30T07:59:59Z</time></trkpt><trkpt lat="12.6572475303" lon="37.4856647942"><ele>2314.51</ele><time>2015-03-30T08:00:11Z</time></trkpt><trkpt lat="12.6573122386" lon="37.4857325200"><ele>2315.47</ele><time>2015-03-30T08:00:12Z</time></trkpt><trkpt lat="12.6583246887" lon="37.4872376584"><ele>2327.97</ele><time>2015-03-30T08:00:31Z</time></trkpt><trkpt lat="12.6588410139" lon="37.4883138109"><ele>2336.14</ele><time>2015-03-30T08:00:44Z</time></trkpt><trkpt lat="12.6596994046" lon="37.4892188050"><ele>2344.79</ele><time>2015-03-30T08:00:57Z</time></trkpt><trkpt lat="12.6600548811" lon="37.4901675526"><ele>2349.12</ele><time>2015-03-30T08:01:07Z</time></trkpt><trkpt lat="12.6598792803" lon="37.4912104290"><ele>2355.37</ele><time>2015-03-30T08:01:17Z</time></trkpt><trkpt lat="12.6595944632" lon="37.4923869129"><ele>2363.54</ele><time>2015-03-30T08:01:28Z</time></trkpt><trkpt lat="12.6598635223" lon="37.4934183899"><ele>2368.83</ele><time>2015-03-30T08:01:37Z</time></trkpt><trkpt lat="12.6605883054" lon="37.4942239746"><ele>2375.07</ele><time>2015-03-30T08:01:46Z</time></trkpt><trkpt lat="12.6609010343" lon="37.4944054428"><ele>2377.00</ele><time>2015-03-30T08:01:49Z</time></trkpt><trkpt lat="12.6628043968" lon="37.4948811159"><ele>2387.09</ele><time>2015-03-30T08:02:06Z</time></trkpt><trkpt lat="12.6643940248" lon="37.4952755682"><ele>2394.78</ele><time>2015-03-30T08:02:23Z</time></trkpt><trkpt lat="12.6654611249" lon="37.4957187194"><ele>2396.70</ele><time>2015-03-30T08:02:36Z</time></trkpt><trkpt lat="12.6657642145" lon="37.4961053766"><ele>2398.63</ele><time>2015-03-30T08:02:41Z</time></trkpt><trkpt lat="12.6659171842" lon="37.4971101992"><ele>2401.51</ele><time>2015-03-30T08:02:51Z</time></trkpt><trkpt lat="12.6655388251" lon="37.4978969246"><ele>2406.32</ele><time>2015-03-30T08:02:59Z</time></trkpt><trkpt lat="12.6651802473" lon="37.4981803168"><ele>2408.72</ele><time>2015-03-30T08:03:03Z</time></trkpt><trkpt lat="12.6644140575" lon="37.4984411616"><ele>2413.05</ele><time>2015-03-30T08:03:10Z</time></trkpt><trkpt lat="12.6641958766" lon="37.4985306803"><ele>2414.01</ele><time>2015-03-30T08:03:12Z</time></trkpt><trkpt lat="12.6635568403" lon="37.4991867319"><ele>2417.85</ele><time>2015-03-30T08:03:20Z</time></trkpt><trkpt lat="12.6634024456" lon="37.5000867806"><ele>2422.18</ele><time>2015-03-30T08:03:28Z</time></trkpt><trkpt lat="12.6637878455" lon="37.5009538047"><ele>2425.06</ele><time>2015-03-30T08:03:36Z</time></trkpt><trkpt lat="12.6639633626" lon="37.5011308305"><ele>2425.54</ele><time>2015-03-30T08:03:38Z</time></trkpt><trkpt lat="12.6656839158" lon="37.5024169497"><ele>2427.95</ele><time>2015-03-30T08:03:54Z</time></trkpt><trkpt lat="12.6668836176" lon="37.5029857457"><ele>2426.50</ele><time>2015-03-30T08:04:03Z</time></trkpt><trkpt lat="12.6682653744" lon="37.5033486821"><ele>2425.06</ele><time>2015-03-30T08:04:12Z</time></trkpt><trkpt lat="12.6699139271" lon="37.5044685882"><ele>2425.54</ele><time>2015-03-30T08:04:25Z</time></trkpt><trkpt lat="12.6717439480" lon="37.5057692919"><ele>2426.02</ele><time>2015-03-30T08:04:41Z</time></trkpt><trkpt lat="12.6726657059" lon="37.5063983537"><ele>2426.02</ele><time>2015-03-30T08:04:49Z</time></trkpt><trkpt lat="12.6734781638" lon="37.5064375810"><ele>2426.02</ele><time>2015-03-30T08:04:56Z</time></trkpt><trkpt lat="12.6739517413" lon="37.5058011431"><ele>2426.50</ele><time>2015-03-30T08:05:02Z</time></trkpt><trkpt lat="12.6739918068" lon="37.5055272225"><ele>2426.99</ele><time>2015-03-30T08:05:04Z</time></trkpt><trkpt lat="12.6741390768" lon="37.5030694809"><ele>2431.79</ele><time>2015-03-30T08:05:21Z</time></trkpt><trkpt lat="12.6747054420" lon="37.5023472961"><ele>2434.20</ele><time>2015-03-30T08:05:28Z</time></trkpt><trkpt lat="12.6749740820" lon="37.5022871140"><ele>2434.68</ele><time>2015-03-30T08:05:30Z</time></trkpt><trkpt lat="12.6767964754" lon="37.5023010280"><ele>2437.56</ele><time>2015-03-30T08:05:43Z</time></trkpt><trkpt lat="12.6775404532" lon="37.5028955564"><ele>2439.96</ele><time>2015-03-30T08:05:50Z</time></trkpt><trkpt lat="12.6775982045" lon="37.5030309241"><ele>2440.44</ele><time>2015-03-30T08:05:51Z</time></trkpt><trkpt lat="12.6783150248" lon="37.5050848257"><ele>2445.73</ele><time>2015-03-30T08:06:06Z</time></trkpt><trkpt lat="12.6784431841" lon="37.5056062639"><ele>2447.65</ele><time>2015-03-30T08:06:10Z</time></trkpt><trkpt lat="12.6789759379" lon="37.5061358325"><ele>2451.50</ele><time>2015-03-30T08:06:16Z</time></trkpt><trkpt lat="12.6796994638" lon="37.5060604792"><ele>2453.90</ele><time>2015-03-30T08:06:22Z</time></trkpt><trkpt lat="12.6800603047" lon="37.5055674557"><ele>2455.82</ele><time>2015-03-30T08:06:27Z</time></trkpt><trkpt lat="12.6800590474" lon="37.5050669722"><ele>2457.75</ele><time>2015-03-30T08:06:31Z</time></trkpt><trkpt lat="12.6797072589" lon="37.5036544539"><ele>2466.40</ele><time>2015-03-30T08:06:44Z</time></trkpt><trkpt lat="12.6797513478" lon="37.5028421637"><ele>2473.61</ele><time>2015-03-30T08:06:54Z</time></trkpt><trkpt lat="12.6797764096" lon="37.5026915409"><ele>2475.05</ele><time>2015-03-30T08:06:56Z</time></trkpt><trkpt lat="12.6801817585" lon="37.5021958351"><ele>2479.38</ele><time>2015-03-30T08:07:04Z</time></trkpt><trkpt lat="12.6805917174" lon="37.5020437874"><ele>2481.30</ele><time>2015-03-30T08:07:09Z</time></trkpt><trkpt lat="12.6811120659" lon="37.5013358518"><ele>2486.59</ele><time>2015-03-30T08:07:19Z</time></trkpt><trkpt lat="12.6817307342" lon="37.5001278520"><ele>2495.72</ele><time>2015-03-30T08:07:33Z</time></trkpt><trkpt lat="12.6820495818" lon="37.4996032286"><ele>2500.05</ele><time>2015-03-30T08:07:39Z</time></trkpt><trkpt lat="12.6821406092" lon="37.4992079381"><ele>2502.93</ele><time>2015-03-30T08:07:43Z</time></trkpt><trkpt lat="12.6821350772" lon="37.4981174525"><ele>2509.66</ele><time>2015-03-30T08:07:53Z</time></trkpt><trkpt lat="12.6825797372" lon="37.4974602275"><ele>2514.47</ele><time>2015-03-30T08:08:01Z</time></trkpt><trkpt lat="12.6832385547" lon="37.4974475708"><ele>2517.83</ele><time>2015-03-30T08:08:08Z</time></trkpt><trkpt lat="12.6833265647" lon="37.4974894803"><ele>2518.31</ele><time>2015-03-30T08:08:09Z</time></trkpt><trkpt lat="12.6836677920" lon="37.4976514187"><ele>2520.71</ele><time>2015-03-30T08:08:13Z</time></trkpt><trkpt lat="12.6843173895" lon="37.4976018816"><ele>2524.56</ele><time>2015-03-30T08:08:20Z</time></trkpt><trkpt lat="12.6846042182" lon="37.4974752311"><ele>2526.00</ele><time>2015-03-30T08:08:23Z</time></trkpt><trkpt lat="12.6851203758" lon="37.4973791745"><ele>2528.40</ele><time>2015-03-30T08:08:28Z</time></trkpt><trkpt lat="12.6854792889" lon="37.4971678667"><ele>2530.81</ele><time>2015-03-30T08:08:32Z</time></trkpt><trkpt lat="12.6857317518" lon="37.4969604146"><ele>2532.73</ele><time>2015-03-30T08:08:35Z</time></trkpt><trkpt lat="12.6862375997" lon="37.4968133960"><ele>2535.13</ele><time>2015-03-30T08:08:40Z</time></trkpt><trkpt lat="12.6873496268" lon="37.4970523641"><ele>2541.38</ele><time>2015-03-30T08:08:51Z</time></trkpt><trkpt lat="12.6878896728" lon="37.4968582392"><ele>2545.71</ele><time>2015-03-30T08:08:57Z</time></trkpt><trkpt lat="12.6880389545" lon="37.4967088737"><ele>2546.67</ele><time>2015-03-30T08:08:59Z</time></trkpt><trkpt lat="12.6888633147" lon="37.4963803031"><ele>2552.44</ele><time>2015-03-30T08:09:08Z</time></trkpt><trkpt lat="12.6891265064" lon="37.4962830730"><ele>2553.88</ele><time>2015-03-30T08:09:11Z</time></trkpt><trkpt lat="12.6899045147" lon="37.4964099750"><ele>2559.17</ele><time>2015-03-30T08:09:19Z</time></trkpt><trkpt lat="12.6901433151" lon="37.4966289941"><ele>2561.09</ele><time>2015-03-30T08:09:22Z</time></trkpt><trkpt lat="12.6904087700" lon="37.4969706405"><ele>2563.49</ele><time>2015-03-30T08:09:26Z</time></trkpt><trkpt lat="12.6908487361" lon="37.4971929286"><ele>2566.86</ele><time>2015-03-30T08:09:31Z</time></trkpt><trkpt lat="12.6911627222" lon="37.4972332455"><ele>2568.78</ele><time>2015-03-30T08:09:34Z</time></trkpt><trkpt lat="12.6916719228" lon="37.4975613132"><ele>2572.63</ele><time>2015-03-30T08:09:40Z</time></trkpt><trkpt lat="12.6919087954" lon="37.4978924822"><ele>2575.03</ele><time>2015-03-30T08:09:44Z</time></trkpt><trkpt lat="12.6922896691" lon="37.4981840048"><ele>2577.91</ele><time>2015-03-30T08:09:49Z</time></trkpt><trkpt lat="12.6929554436" lon="37.4983658083"><ele>2582.24</ele><time>2015-03-30T08:09:57Z</time></trkpt><trkpt lat="12.6934074797" lon="37.4982301891"><ele>2585.12</ele><time>2015-03-30T08:10:03Z</time></trkpt><trkpt lat="12.6942770183" lon="37.4975575414"><ele>2589.45</ele><time>2015-03-30T08:10:15Z</time></trkpt><trkpt lat="12.6952069066" lon="37.4972132966"><ele>2594.25</ele><time>2015-03-30T08:10:25Z</time></trkpt><trkpt lat="12.6962193567" lon="37.4971029069"><ele>2600.02</ele><time>2015-03-30T08:10:35Z</time></trkpt><trkpt lat="12.6968032401" lon="37.4973437190"><ele>2603.87</ele><time>2015-03-30T08:10:41Z</time></trkpt><trkpt lat="12.6976945717" lon="37.4974255264"><ele>2610.12</ele><time>2015-03-30T08:10:50Z</time></trkpt><trkpt lat="12.6980803069" lon="37.4973065034"><ele>2612.52</ele><time>2015-03-30T08:10:54Z</time></trkpt><trkpt lat="12.6984752622" lon="37.4973148014"><ele>2615.40</ele><time>2015-03-30T08:10:58Z</time></trkpt><trkpt lat="12.6986633521" lon="37.4973717146"><ele>2616.37</ele><time>2015-03-30T08:11:00Z</time></trkpt><trkpt lat="12.6992382668" lon="37.4973919988"><ele>2620.21</ele><time>2015-03-30T08:11:06Z</time></trkpt><trkpt lat="12.6996770594" lon="37.4975508358"><ele>2624.06</ele><time>2015-03-30T08:11:11Z</time></trkpt><trkpt lat="12.6998355612" lon="37.4976415280"><ele>2625.50</ele><time>2015-03-30T08:11:13Z</time></trkpt><trkpt lat="12.7004514635" lon="37.4978221580"><ele>2630.30</ele><time>2015-03-30T08:11:20Z</time></trkpt><trkpt lat="12.7008543815" lon="37.4980232399"><ele>2633.19</ele><time>2015-03-30T08:11:25Z</time></trkpt><trkpt lat="12.7019304503" lon="37.4982334580"><ele>2638.48</ele><time>2015-03-30T08:11:36Z</time></trkpt><trkpt lat="12.7027884219" lon="37.4981072266"><ele>2642.32</ele><time>2015-03-30T08:11:45Z</time></trkpt><trkpt lat="12.7031780966" lon="37.4979379959"><ele>2643.76</ele><time>2015-03-30T08:11:54Z</time></trkpt><trkpt lat="12.7035838645" lon="37.4976745527"><ele>2646.65</ele><time>2015-03-30T08:12:08Z</time></trkpt><trkpt lat="12.7043283451" lon="37.4971842952"><ele>2649.05</ele><time>2015-03-30T08:12:19Z</time></trkpt><trkpt lat="12.7051423118" lon="37.4970203452"><ele>2651.45</ele><time>2015-03-30T08:12:27Z</time></trkpt><trkpt lat="12.7058074996" lon="37.4970290624"><ele>2653.38</ele><time>2015-03-30T08:12:33Z</time></trkpt><trkpt lat="12.7064732742" lon="37.4973206688"><ele>2654.34</ele><time>2015-03-30T08:12:39Z</time></trkpt><trkpt lat="12.7075409610" lon="37.4980015308"><ele>2655.78</ele><time>2015-03-30T08:12:49Z</time></trkpt><trkpt lat="12.7078063320" lon="37.4980582763"><ele>2656.26</ele><time>2015-03-30T08:12:51Z</time></trkpt><trkpt lat="12.7083655726" lon="37.4980639759"><ele>2656.74</ele><time>2015-03-30T08:12:55Z</time></trkpt><trkpt lat="12.7090652101" lon="37.4978822563"><ele>2656.74</ele><time>2015-03-30T08:13:00Z</time></trkpt><trkpt lat="12.7103352360" lon="37.4978986848"><ele>2656.74</ele><time>2015-03-30T08:13:09Z</time></trkpt><trkpt lat="12.7118252870" lon="37.4974898156"><ele>2656.74</ele><time>2015-03-30T08:13:20Z</time></trkpt><trkpt lat="12.7126651537" lon="37.4969180021"><ele>2656.74</ele><time>2015-03-30T08:13:27Z</time></trkpt><trkpt lat="12.7131416649" lon="37.4959726073"><ele>2656.74</ele><time>2015-03-30T08:13:34Z</time></trkpt><trkpt lat="12.7136942837" lon="37.4945415650"><ele>2658.66</ele><time>2015-03-30T08:13:44Z</time></trkpt><trkpt lat="12.7146799956" lon="37.4936629739"><ele>2661.55</ele><time>2015-03-30T08:13:53Z</time></trkpt><trkpt lat="12.7156797051" lon="37.4932794180"><ele>2663.95</ele><time>2015-03-30T08:14:01Z</time></trkpt><trkpt lat="12.7178864088" lon="37.4928740691"><ele>2669.72</ele><time>2015-03-30T08:14:17Z</time></trkpt><trkpt lat="12.7185947634" lon="37.4924238771"><ele>2671.64</ele><time>2015-03-30T08:14:23Z</time></trkpt><trkpt lat="12.7192891203" lon="37.4917254131"><ele>2674.04</ele><time>2015-03-30T08:14:30Z</time></trkpt><trkpt lat="12.7206251957" lon="37.4912827648"><ele>2677.41</ele><time>2015-03-30T08:14:40Z</time></trkpt><trkpt lat="12.7217596024" lon="37.4909415375"><ele>2680.77</ele><time>2015-03-30T08:14:48Z</time></trkpt><trkpt lat="12.7222217806" lon="37.4905716442"><ele>2682.70</ele><time>2015-03-30T08:14:52Z</time></trkpt><trkpt lat="12.7233203966" lon="37.4892900512"><ele>2688.46</ele><time>2015-03-30T08:15:05Z</time></trkpt><trkpt lat="12.7235038765" lon="37.4891431164"><ele>2689.43</ele><time>2015-03-30T08:15:07Z</time></trkpt><trkpt lat="12.7244782727" lon="37.4889212474"><ele>2692.31</ele><time>2015-03-30T08:15:16Z</time></trkpt><trkpt lat="12.7252840251" lon="37.4893037137"><ele>2696.15</ele><time>2015-03-30T08:15:24Z</time></trkpt><trkpt lat="12.7257146873" lon="37.4900370464"><ele>2700.48</ele><time>2015-03-30T08:15:32Z</time></trkpt><trkpt lat="12.7257351391" lon="37.4901497830"><ele>2700.96</ele><time>2015-03-30T08:15:33Z</time></trkpt><trkpt lat="12.7257572673" lon="37.4905537069"><ele>2703.36</ele><time>2015-03-30T08:15:37Z</time></trkpt><trkpt lat="12.7254808322" lon="37.4913157895"><ele>2708.65</ele><time>2015-03-30T08:15:47Z</time></trkpt><trkpt lat="12.7246995550" lon="37.4920940492"><ele>2719.23</ele><time>2015-03-30T08:16:01Z</time></trkpt><trkpt lat="12.7242493629" lon="37.4929791782"><ele>2725.96</ele><time>2015-03-30T08:16:13Z</time></trkpt><trkpt lat="12.7239639591" lon="37.4945530482"><ele>2736.53</ele><time>2015-03-30T08:16:30Z</time></trkpt><trkpt lat="12.7240863349" lon="37.4955606367"><ele>2742.30</ele><time>2015-03-30T08:16:40Z</time></trkpt><trkpt lat="12.7247630898" lon="37.4971682858"><ele>2750.47</ele><time>2015-03-30T08:16:56Z</time></trkpt><trkpt lat="12.7250255272" lon="37.4983636290"><ele>2757.20</ele><time>2015-03-30T08:17:07Z</time></trkpt><trkpt lat="12.7247511875" lon="37.4993842933"><ele>2762.49</ele><time>2015-03-30T08:17:16Z</time></trkpt><trkpt lat="12.7240600996" lon="37.5004974101"><ele>2768.73</ele><time>2015-03-30T08:17:27Z</time></trkpt><trkpt lat="12.7232038882" lon="37.5011775177"><ele>2773.54</ele><time>2015-03-30T08:17:36Z</time></trkpt><trkpt lat="12.7227797639" lon="37.5019885506"><ele>2777.87</ele><time>2015-03-30T08:17:44Z</time></trkpt><trkpt lat="12.7227555402" lon="37.5029928703"><ele>2781.71</ele><time>2015-03-30T08:17:53Z</time></trkpt><trkpt lat="12.7227749024" lon="37.5040940847"><ele>2785.56</ele><time>2015-03-30T08:18:02Z</time></trkpt><trkpt lat="12.7228311449" lon="37.5051307585"><ele>2788.44</ele><time>2015-03-30T08:18:10Z</time></trkpt><trkpt lat="12.7233778127" lon="37.5064520817"><ele>2790.84</ele><time>2015-03-30T08:18:20Z</time></trkpt><trkpt lat="12.7238117438" lon="37.5085710268"><ele>2793.25</ele><time>2015-03-30T08:18:34Z</time></trkpt><trkpt lat="12.7243367862" lon="37.5101588946"><ele>2798.05</ele><time>2015-03-30T08:18:45Z</time></trkpt><trkpt lat="12.7251391020" lon="37.5107918959"><ele>2800.46</ele><time>2015-03-30T08:18:52Z</time></trkpt><trkpt lat="12.7261716686" lon="37.5110058859"><ele>2802.38</ele><time>2015-03-30T08:18:59Z</time></trkpt><trkpt lat="12.7271572966" lon="37.5113679841"><ele>2804.78</ele><time>2015-03-30T08:19:06Z</time></trkpt><trkpt lat="12.7289112099" lon="37.5127700251"><ele>2807.19</ele><time>2015-03-30T08:19:20Z</time></trkpt><trkpt lat="12.7291908301" lon="37.5131822471"><ele>2807.19</ele><time>2015-03-30T08:19:23Z</time></trkpt><trkpt lat="12.7295090910" lon="37.5145367626"><ele>2808.15</ele><time>2015-03-30T08:19:31Z</time></trkpt><trkpt lat="12.7297752164" lon="37.5159098860"><ele>2807.19</ele><time>2015-03-30T08:19:39Z</time></trkpt><trkpt lat="12.7304456849" lon="37.5167845376"><ele>2806.71</ele><time>2015-03-30T08:19:46Z</time></trkpt><trkpt lat="12.7311443165" lon="37.5171805825"><ele>2805.26</ele><time>2015-03-30T08:19:51Z</time></trkpt><trkpt lat="12.7327657118" lon="37.5175078958"><ele>2800.94</ele><time>2015-03-30T08:20:01Z</time></trkpt><trkpt lat="12.7338263579" lon="37.5174647290"><ele>2799.50</ele><time>2015-03-30T08:20:08Z</time></trkpt><trkpt lat="12.7344137616" lon="37.5172059797"><ele>2799.02</ele><time>2015-03-30T08:20:12Z</time></trkpt><trkpt lat="12.7357326541" lon="37.5164947752"><ele>2796.61</ele><time>2015-03-30T08:20:21Z</time></trkpt><trkpt lat="12.7368560806" lon="37.5163189229"><ele>2794.21</ele><time>2015-03-30T08:20:28Z</time></trkpt><trkpt lat="12.7371610142" lon="37.5161818787"><ele>2793.73</ele><time>2015-03-30T08:20:30Z</time></trkpt><trkpt lat="12.7377820294" lon="37.5156031083"><ele>2792.77</ele><time>2015-03-30T08:20:35Z</time></trkpt><trkpt lat="12.7384121809" lon="37.5147389341"><ele>2789.88</ele><time>2015-03-30T08:20:41Z</time></trkpt><trkpt lat="12.7392994054" lon="37.5142037496"><ele>2787.00</ele><time>2015-03-30T08:20:47Z</time></trkpt><trkpt lat="12.7408880275" lon="37.5140636880"><ele>2781.71</ele><time>2015-03-30T08:20:57Z</time></trkpt><trkpt lat="12.7412967291" lon="37.5141844712"><ele>2780.27</ele><time>2015-03-30T08:21:00Z</time></trkpt><trkpt lat="12.7422657609" lon="37.5150032155"><ele>2774.50</ele><time>2015-03-30T08:21:09Z</time></trkpt><trkpt lat="12.7426414378" lon="37.5158915296"><ele>2767.77</ele><time>2015-03-30T08:21:16Z</time></trkpt><trkpt lat="12.7427101694" lon="37.5162300747"><ele>2759.60</ele><time>2015-03-30T08:21:23Z</time></trkpt><trkpt lat="12.7427146956" lon="37.5162413064"><ele>2753.83</ele><time>2015-03-30T08:21:38Z</time></trkpt><trkpt lat="12.7427454572" lon="37.5165938493"><ele>2752.87</ele><time>2015-03-30T08:21:51Z</time></trkpt><trkpt lat="12.7427722793" lon="37.5170637388"><ele>2752.87</ele><time>2015-03-30T08:22:01Z</time></trkpt><trkpt lat="12.7428216487" lon="37.5183634367"><ele>2757.68</ele><time>2015-03-30T08:22:18Z</time></trkpt><trkpt lat="12.7611995582" lon="37.5702824537"><ele>2995.12</ele><time>2015-03-30T08:31:11Z</time></trkpt><trkpt lat="12.7616165578" lon="37.5701629277"><ele>2994.64</ele><time>2015-03-30T08:31:14Z</time></trkpt><trkpt lat="12.7626817301" lon="37.5706246868"><ele>3003.78</ele><time>2015-03-30T08:31:23Z</time></trkpt><trkpt lat="12.7640307974" lon="37.5720947050"><ele>3013.39</ele><time>2015-03-30T08:31:38Z</time></trkpt><trkpt lat="12.7653063554" lon="37.5735203829"><ele>3012.43</ele><time>2015-03-30T08:31:50Z</time></trkpt><trkpt lat="12.7664521616" lon="37.5751608890"><ele>3007.62</ele><time>2015-03-30T08:32:01Z</time></trkpt><trkpt lat="12.7668551635" lon="37.5767955277"><ele>3002.82</ele><time>2015-03-30T08:32:10Z</time></trkpt><trkpt lat="12.7672487777" lon="37.5793297961"><ele>2996.09</ele><time>2015-03-30T08:32:24Z</time></trkpt><trkpt lat="12.7676157374" lon="37.5800187886"><ele>2994.16</ele><time>2015-03-30T08:32:29Z</time></trkpt><trkpt lat="12.7691149246" lon="37.5813829433"><ele>2986.95</ele><time>2015-03-30T08:32:41Z</time></trkpt><trkpt lat="12.7694792859" lon="37.5817405991"><ele>2985.51</ele><time>2015-03-30T08:32:44Z</time></trkpt><trkpt lat="12.7699716389" lon="37.5829186756"><ele>2983.11</ele><time>2015-03-30T08:32:51Z</time></trkpt><trkpt lat="12.7697140630" lon="37.5839722808"><ele>2985.03</ele><time>2015-03-30T08:32:57Z</time></trkpt><trkpt lat="12.7693250589" lon="37.5845027715"><ele>2985.99</ele><time>2015-03-30T08:33:01Z</time></trkpt><trkpt lat="12.7682620659" lon="37.5852033310"><ele>2990.80</ele><time>2015-03-30T08:33:10Z</time></trkpt><trkpt lat="12.7680370957" lon="37.5853704661"><ele>2991.76</ele><time>2015-03-30T08:33:12Z</time></trkpt><trkpt lat="12.7672085445" lon="37.5865857583"><ele>2996.57</ele><time>2015-03-30T08:33:22Z</time></trkpt><trkpt lat="12.7663383354" lon="37.5873786025"><ele>2996.57</ele><time>2015-03-30T08:33:29Z</time></trkpt><trkpt lat="12.7653874923" lon="37.5880866218"><ele>2994.64</ele><time>2015-03-30T08:33:36Z</time></trkpt><trkpt lat="12.7649438381" lon="37.5887484569"><ele>2993.68</ele><time>2015-03-30T08:33:41Z</time></trkpt><trkpt lat="12.7647968195" lon="37.5891855732"><ele>2993.20</ele><time>2015-03-30T08:33:44Z</time></trkpt><trkpt lat="12.7647289261" lon="37.5908405799"><ele>2990.32</ele><time>2015-03-30T08:33:54Z</time></trkpt><trkpt lat="12.7646451071" lon="37.5920520164"><ele>2986.95</ele><time>2015-03-30T08:34:01Z</time></trkpt><trkpt lat="12.7643724438" lon="37.5926547591"><ele>2985.03</ele><time>2015-03-30T08:34:05Z</time></trkpt><trkpt lat="12.7637266181" lon="37.5938633457"><ele>2981.19</ele><time>2015-03-30T08:34:14Z</time></trkpt><trkpt lat="12.7636640053" lon="37.5943335705"><ele>2979.74</ele><time>2015-03-30T08:34:17Z</time></trkpt><trkpt lat="12.7638997044" lon="37.5952950586"><ele>2977.82</ele><time>2015-03-30T08:34:23Z</time></trkpt><trkpt lat="12.7651112247" lon="37.5976047758"><ele>2974.46</ele><time>2015-03-30T08:34:38Z</time></trkpt><trkpt lat="12.7651527151" lon="37.5977634452"><ele>2974.46</ele><time>2015-03-30T08:34:39Z</time></trkpt><trkpt lat="12.7651321795" lon="37.5987827685"><ele>2974.94</ele><time>2015-03-30T08:34:45Z</time></trkpt><trkpt lat="12.7642259281" lon="37.6005971991"><ele>2969.65</ele><time>2015-03-30T08:34:57Z</time></trkpt><trkpt lat="12.7641153708" lon="37.6008735504"><ele>2968.21</ele><time>2015-03-30T08:34:59Z</time></trkpt><trkpt lat="12.7640247624" lon="37.6016441826"><ele>2963.88</ele><time>2015-03-30T08:35:04Z</time></trkpt><trkpt lat="12.7639563661" lon="37.6033545099"><ele>2951.87</ele><time>2015-03-30T08:35:14Z</time></trkpt><trkpt lat="12.7633079421" lon="37.6046739891"><ele>2941.77</ele><time>2015-03-30T08:35:22Z</time></trkpt><trkpt lat="12.7630066127" lon="37.6059083082"><ele>2936.97</ele><time>2015-03-30T08:35:29Z</time></trkpt><trkpt lat="12.7631912660" lon="37.6071047410"><ele>2935.52</ele><time>2015-03-30T08:35:36Z</time></trkpt><trkpt lat="12.7639850322" lon="37.6086793654"><ele>2933.12</ele><time>2015-03-30T08:35:46Z</time></trkpt><trkpt lat="12.7652306668" lon="37.6110120490"><ele>2931.20</ele><time>2015-03-30T08:36:01Z</time></trkpt><trkpt lat="12.7656834573" lon="37.6118756365"><ele>2930.72</ele><time>2015-03-30T08:36:09Z</time></trkpt><trkpt lat="12.7664159518" lon="37.6132459100"><ele>2930.24</ele><time>2015-03-30T08:36:23Z</time></trkpt><trkpt lat="12.7672317624" lon="37.6148011722"><ele>2930.24</ele><time>2015-03-30T08:36:36Z</time></trkpt><trkpt lat="12.7677105367" lon="37.6163985953"><ele>2932.16</ele><time>2015-03-30T08:36:47Z</time></trkpt><trkpt lat="12.7680271212" lon="37.6181509998"><ele>2938.41</ele><time>2015-03-30T08:37:00Z</time></trkpt><trkpt lat="12.7681753132" lon="37.6188504696"><ele>2941.77</ele><time>2015-03-30T08:37:09Z</time></trkpt><trkpt lat="12.7683423646" lon="37.6197852194"><ele>2944.17</ele><time>2015-03-30T08:37:21Z</time></trkpt><trkpt lat="12.7685290296" lon="37.6209635474"><ele>2946.58</ele><time>2015-03-30T08:37:33Z</time></trkpt><trkpt lat="12.7683634870" lon="37.6220839564"><ele>2952.35</ele><time>2015-03-30T08:37:46Z</time></trkpt><trkpt lat="12.7681739721" lon="37.6235228777"><ele>2959.56</ele><time>2015-03-30T08:38:01Z</time></trkpt><trkpt lat="12.7683207393" lon="37.6240546256"><ele>2963.40</ele><time>2015-03-30T08:38:10Z</time></trkpt><trkpt lat="12.7685363218" lon="37.6245758124"><ele>2964.84</ele><time>2015-03-30T08:38:23Z</time></trkpt><trkpt lat="12.7688186243" lon="37.6252349652"><ele>2963.88</ele><time>2015-03-30T08:38:33Z</time></trkpt><trkpt lat="12.7689521480" lon="37.6257010829"><ele>2962.44</ele><time>2015-03-30T08:38:40Z</time></trkpt><trkpt lat="12.7689151838" lon="37.6260069385"><ele>2960.52</ele><time>2015-03-30T08:38:45Z</time></trkpt><trkpt lat="12.7685221564" lon="37.6265129540"><ele>2958.59</ele><time>2015-03-30T08:38:54Z</time></trkpt><trkpt lat="12.7684529219" lon="37.6265485771"><ele>2958.11</ele><time>2015-03-30T08:38:55Z</time></trkpt><trkpt lat="12.7675955370" lon="37.6268829312"><ele>2953.79</ele><time>2015-03-30T08:39:06Z</time></trkpt><trkpt lat="12.7672934532" lon="37.6271286886"><ele>2951.38</ele><time>2015-03-30T08:39:12Z</time></trkpt><trkpt lat="12.7670925390" lon="37.6278285775"><ele>2948.02</ele><time>2015-03-30T08:39:21Z</time></trkpt><trkpt lat="12.7673643641" lon="37.6284145564"><ele>2944.66</ele><time>2015-03-30T08:39:27Z</time></trkpt><trkpt lat="12.7680220082" lon="37.6287152991"><ele>2940.81</ele><time>2015-03-30T08:39:33Z</time></trkpt><trkpt lat="12.7693795413" lon="37.6290206518"><ele>2933.60</ele><time>2015-03-30T08:39:43Z</time></trkpt><trkpt lat="12.7696308307" lon="37.6291693468"><ele>2932.16</ele><time>2015-03-30T08:39:45Z</time></trkpt><trkpt lat="12.7708752919" lon="37.6304401271"><ele>2923.99</ele><time>2015-03-30T08:39:57Z</time></trkpt><trkpt lat="12.7719515283" lon="37.6315289363"><ele>2914.85</ele><time>2015-03-30T08:40:07Z</time></trkpt><trkpt lat="12.7730571851" lon="37.6319587603"><ele>2907.65</ele><time>2015-03-30T08:40:15Z</time></trkpt><trkpt lat="12.7734548226" lon="37.6321631111"><ele>2905.24</ele><time>2015-03-30T08:40:18Z</time></trkpt><trkpt lat="12.7741615009" lon="37.6330260281"><ele>2899.95</ele><time>2015-03-30T08:40:25Z</time></trkpt><trkpt lat="12.7754050400" lon="37.6358800661"><ele>2890.82</ele><time>2015-03-30T08:40:43Z</time></trkpt><trkpt lat="12.7758124843" lon="37.6368340943"><ele>2886.50</ele><time>2015-03-30T08:40:51Z</time></trkpt><trkpt lat="12.7764005587" lon="37.6378830895"><ele>2882.65</ele><time>2015-03-30T08:41:00Z</time></trkpt><trkpt lat="12.7768445481" lon="37.6382190362"><ele>2880.25</ele><time>2015-03-30T08:41:04Z</time></trkpt><trkpt lat="12.7774938103" lon="37.6386034302"><ele>2877.84</ele><time>2015-03-30T08:41:09Z</time></trkpt><trkpt lat="12.7779289149" lon="37.6393886469"><ele>2875.92</ele><time>2015-03-30T08:41:15Z</time></trkpt><trkpt lat="12.7777683176" lon="37.6401664037"><ele>2874.00</ele><time>2015-03-30T08:41:20Z</time></trkpt><trkpt lat="12.7776885219" lon="37.6403143443"><ele>2873.04</ele><time>2015-03-30T08:41:21Z</time></trkpt><trkpt lat="12.7761901729" lon="37.6428734232"><ele>2861.02</ele><time>2015-03-30T08:41:39Z</time></trkpt><trkpt lat="12.7761639375" lon="37.6438416168"><ele>2855.25</ele><time>2015-03-30T08:41:46Z</time></trkpt><trkpt lat="12.7765767463" lon="37.6444319542"><ele>2851.41</ele><time>2015-03-30T08:41:51Z</time></trkpt><trkpt lat="12.7773286030" lon="37.6451765187"><ele>2846.60</ele><time>2015-03-30T08:41:58Z</time></trkpt><trkpt lat="12.7774946485" lon="37.6454498526"><ele>2845.16</ele><time>2015-03-30T08:42:00Z</time></trkpt><trkpt lat="12.7776492946" lon="37.6460830215"><ele>2841.79</ele><time>2015-03-30T08:42:04Z</time></trkpt><trkpt lat="12.7779103909" lon="37.6472989842"><ele>2835.06</ele><time>2015-03-30T08:42:12Z</time></trkpt><trkpt lat="12.7787987888" lon="37.6482887194"><ele>2825.93</ele><time>2015-03-30T08:42:21Z</time></trkpt><trkpt lat="12.7794188820" lon="37.6488856785"><ele>2820.16</ele><time>2015-03-30T08:42:28Z</time></trkpt><trkpt lat="12.7802130673" lon="37.6497888286"><ele>2813.44</ele><time>2015-03-30T08:42:36Z</time></trkpt><trkpt lat="12.7804592438" lon="37.6509581041"><ele>2806.71</ele><time>2015-03-30T08:42:43Z</time></trkpt><trkpt lat="12.7804092877" lon="37.6513023488"><ele>2804.78</ele><time>2015-03-30T08:42:45Z</time></trkpt><trkpt lat="12.7802792005" lon="37.6519627590"><ele>2801.90</ele><time>2015-03-30T08:42:49Z</time></trkpt><trkpt lat="12.7802996524" lon="37.6524444669"><ele>2799.98</ele><time>2015-03-30T08:42:52Z</time></trkpt><trkpt lat="12.7804855630" lon="37.6530637220"><ele>2797.09</ele><time>2015-03-30T08:42:56Z</time></trkpt><trkpt lat="12.7815975063" lon="37.6550006121"><ele>2787.96</ele><time>2015-03-30T08:43:09Z</time></trkpt><trkpt lat="12.7826144826" lon="37.6571352314"><ele>2778.35</ele><time>2015-03-30T08:43:23Z</time></trkpt><trkpt lat="12.7833347395" lon="37.6592316292"><ele>2769.21</ele><time>2015-03-30T08:43:35Z</time></trkpt><trkpt lat="12.7841207106" lon="37.6612079144"><ele>2760.56</ele><time>2015-03-30T08:43:46Z</time></trkpt><trkpt lat="12.7840861771" lon="37.6625434030"><ele>2756.24</ele><time>2015-03-30T08:43:53Z</time></trkpt><trkpt lat="12.7833603881" lon="37.6653030608"><ele>2750.47</ele><time>2015-03-30T08:44:07Z</time></trkpt><trkpt lat="12.7834264375" lon="37.6667563990"><ele>2748.07</ele><time>2015-03-30T08:44:14Z</time></trkpt><trkpt lat="12.7840526495" lon="37.6699188910"><ele>2737.97</ele><time>2015-03-30T08:44:28Z</time></trkpt><trkpt lat="12.7847937774" lon="37.6728015952"><ele>2726.92</ele><time>2015-03-30T08:44:41Z</time></trkpt><trkpt lat="12.7866072021" lon="37.6765818335"><ele>2715.86</ele><time>2015-03-30T08:45:00Z</time></trkpt><trkpt lat="12.7880257554" lon="37.6796083711"><ele>2708.65</ele><time>2015-03-30T08:45:15Z</time></trkpt><trkpt lat="12.7898253500" lon="37.6834327821"><ele>2694.71</ele><time>2015-03-30T08:45:35Z</time></trkpt><trkpt lat="12.7906174399" lon="37.6850965060"><ele>2692.79</ele><time>2015-03-30T08:45:45Z</time></trkpt><trkpt lat="12.7913973760" lon="37.6860410627"><ele>2691.83</ele><time>2015-03-30T08:45:52Z</time></trkpt><trkpt lat="12.7917948458" lon="37.6864021551"><ele>2692.31</ele><time>2015-03-30T08:45:55Z</time></trkpt><trkpt lat="12.7922800742" lon="37.6871352363"><ele>2694.23</ele><time>2015-03-30T08:46:00Z</time></trkpt><trkpt lat="12.7930885088" lon="37.6877715904"><ele>2695.67</ele><time>2015-03-30T08:46:06Z</time></trkpt><trkpt lat="12.7937253658" lon="37.6880703215"><ele>2696.64</ele><time>2015-03-30T08:46:10Z</time></trkpt><trkpt lat="12.7947359718" lon="37.6889989525"><ele>2698.56</ele><time>2015-03-30T08:46:18Z</time></trkpt><trkpt lat="12.7954723220" lon="37.6893819217"><ele>2700.00</ele><time>2015-03-30T08:46:23Z</time></trkpt><trkpt lat="12.7979220171" lon="37.6900972333"><ele>2703.36</ele><time>2015-03-30T08:46:38Z</time></trkpt><trkpt lat="12.7998292353" lon="37.6908252854"><ele>2707.21</ele><time>2015-03-30T08:46:50Z</time></trkpt><trkpt lat="12.8013031930" lon="37.6918674074"><ele>2710.57</ele><time>2015-03-30T08:47:01Z</time></trkpt><trkpt lat="12.8014752734" lon="37.6919238176"><ele>2711.06</ele><time>2015-03-30T08:47:02Z</time></trkpt><trkpt lat="12.8017651197" lon="37.6919788867"><ele>2711.54</ele><time>2015-03-30T08:47:04Z</time></trkpt><trkpt lat="12.8031745367" lon="37.6922031026"><ele>2713.94</ele><time>2015-03-30T08:47:13Z</time></trkpt><trkpt lat="12.8039855696" lon="37.6928899996"><ele>2717.30</ele><time>2015-03-30T08:47:20Z</time></trkpt><trkpt lat="12.8052623849" lon="37.6945618540"><ele>2724.99</ele><time>2015-03-30T08:47:35Z</time></trkpt><trkpt lat="12.8054169472" lon="37.6954904012"><ele>2728.36</ele><time>2015-03-30T08:47:42Z</time></trkpt><trkpt lat="12.8053921368" lon="37.6959009469"><ele>2729.80</ele><time>2015-03-30T08:47:45Z</time></trkpt><trkpt lat="12.8057821468" lon="37.6967931166"><ele>2731.24</ele><time>2015-03-30T08:47:52Z</time></trkpt><trkpt lat="12.8065765835" lon="37.6971630938"><ele>2732.68</ele><time>2015-03-30T08:47:58Z</time></trkpt><trkpt lat="12.8071686812" lon="37.6970886625"><ele>2733.17</ele><time>2015-03-30T08:48:02Z</time></trkpt><trkpt lat="12.8074486367" lon="37.6970043406"><ele>2733.65</ele><time>2015-03-30T08:48:04Z</time></trkpt><trkpt lat="12.8085439000" lon="37.6971532870"><ele>2736.53</ele><time>2015-03-30T08:48:12Z</time></trkpt><trkpt lat="12.8091746382" lon="37.6978594624"><ele>2739.89</ele><time>2015-03-30T08:48:19Z</time></trkpt><trkpt lat="12.8092929907" lon="37.6982443593"><ele>2740.86</ele><time>2015-03-30T08:48:22Z</time></trkpt><trkpt lat="12.8094363213" lon="37.7003444452"><ele>2746.14</ele><time>2015-03-30T08:48:37Z</time></trkpt><trkpt lat="12.8095291927" lon="37.7014017384"><ele>2748.55</ele><time>2015-03-30T08:48:44Z</time></trkpt><trkpt lat="12.8101000842" lon="37.7022842690"><ele>2750.95</ele><time>2015-03-30T08:48:51Z</time></trkpt><trkpt lat="12.8109406214" lon="37.7026234008"><ele>2751.91</ele><time>2015-03-30T08:48:57Z</time></trkpt><trkpt lat="12.8118405025" lon="37.7024753764"><ele>2753.35</ele><time>2015-03-30T08:49:03Z</time></trkpt><trkpt lat="12.8124382161" lon="37.7019850351"><ele>2754.80</ele><time>2015-03-30T08:49:08Z</time></trkpt><trkpt lat="12.8132922482" lon="37.7003800683"><ele>2756.72</ele><time>2015-03-30T08:49:20Z</time></trkpt><trkpt lat="12.8141227271" lon="37.6999092568"><ele>2758.16</ele><time>2015-03-30T08:49:27Z</time></trkpt><trkpt lat="12.8150003124" lon="37.7001160383"><ele>2759.12</ele><time>2015-03-30T08:49:33Z</time></trkpt><trkpt lat="12.8156493232" lon="37.7007495426"><ele>2761.52</ele><time>2015-03-30T08:49:39Z</time></trkpt><trkpt lat="12.8161954042" lon="37.7018287964"><ele>2765.37</ele><time>2015-03-30T08:49:47Z</time></trkpt><trkpt lat="12.8170450777" lon="37.7026401646"><ele>2767.29</ele><time>2015-03-30T08:49:55Z</time></trkpt><trkpt lat="12.8179087490" lon="37.7027990017"><ele>2767.77</ele><time>2015-03-30T08:50:01Z</time></trkpt><trkpt lat="12.8182088211" lon="37.7027464472"><ele>2768.25</ele><time>2015-03-30T08:50:03Z</time></trkpt><trkpt lat="12.8199829347" lon="37.7023171261"><ele>2770.18</ele><time>2015-03-30T08:50:15Z</time></trkpt><trkpt lat="12.8207449336" lon="37.7024992649"><ele>2770.18</ele><time>2015-03-30T08:50:20Z</time></trkpt><trkpt lat="12.8235590737" lon="37.7037737332"><ele>2770.66</ele><time>2015-03-30T08:50:38Z</time></trkpt><trkpt lat="12.8243384231" lon="37.7041613963"><ele>2767.29</ele><time>2015-03-30T08:50:43Z</time></trkpt><trkpt lat="12.8250160161" lon="37.7048389055"><ele>2763.93</ele><time>2015-03-30T08:50:49Z</time></trkpt><trkpt lat="12.8258145601" lon="37.7052149177"><ele>2760.08</ele><time>2015-03-30T08:50:55Z</time></trkpt><trkpt lat="12.8262831084" lon="37.7052642871"><ele>2758.64</ele><time>2015-03-30T08:50:58Z</time></trkpt><trkpt lat="12.8271422535" lon="37.7057645191"><ele>2757.20</ele><time>2015-03-30T08:51:05Z</time></trkpt><trkpt lat="12.8274061158" lon="37.7065804135"><ele>2756.24</ele><time>2015-03-30T08:51:11Z</time></trkpt><trkpt lat="12.8273955546" lon="37.7067347243"><ele>2756.24</ele><time>2015-03-30T08:51:12Z</time></trkpt><trkpt lat="12.8273694031" lon="37.7071932144"><ele>2755.28</ele><time>2015-03-30T08:51:15Z</time></trkpt><trkpt lat="12.8277869057" lon="37.7080866415"><ele>2751.43</ele><time>2015-03-30T08:51:22Z</time></trkpt><trkpt lat="12.8286040574" lon="37.7084359992"><ele>2747.59</ele><time>2015-03-30T08:51:28Z</time></trkpt><trkpt lat="12.8290661518" lon="37.7083859593"><ele>2746.62</ele><time>2015-03-30T08:51:31Z</time></trkpt><trkpt lat="12.8299757559" lon="37.7081117872"><ele>2745.18</ele><time>2015-03-30T08:51:37Z</time></trkpt><trkpt lat="12.8311544191" lon="37.7081853803"><ele>2742.78</ele><time>2015-03-30T08:51:45Z</time></trkpt><trkpt lat="12.8321426455" lon="37.7086884622"><ele>2741.34</ele><time>2015-03-30T08:51:53Z</time></trkpt><trkpt lat="12.8339545615" lon="37.7099513635"><ele>2738.93</ele><time>2015-03-30T08:52:07Z</time></trkpt><trkpt lat="12.8354697581" lon="37.7110328805"><ele>2735.09</ele><time>2015-03-30T08:52:19Z</time></trkpt><trkpt lat="12.8375797346" lon="37.7124792617"><ele>2728.84</ele><time>2015-03-30T08:52:32Z</time></trkpt><trkpt lat="12.8398758732" lon="37.7140596695"><ele>2736.05</ele><time>2015-03-30T08:52:47Z</time></trkpt><trkpt lat="12.8418830875" lon="37.7155570127"><ele>2739.41</ele><time>2015-03-30T08:53:01Z</time></trkpt><trkpt lat="12.8429288976" lon="37.7169770747"><ele>2737.97</ele><time>2015-03-30T08:53:10Z</time></trkpt><trkpt lat="12.8452605754" lon="37.7203850728"><ele>2729.32</ele><time>2015-03-30T08:53:30Z</time></trkpt><trkpt lat="12.8456881363" lon="37.7216715273"><ele>2726.44</ele><time>2015-03-30T08:53:37Z</time></trkpt><trkpt lat="12.8456581291" lon="37.7226452529"><ele>2724.51</ele><time>2015-03-30T08:53:42Z</time></trkpt><trkpt lat="12.8451676201" lon="37.7242928836"><ele>2722.11</ele><time>2015-03-30T08:53:51Z</time></trkpt><trkpt lat="12.8453221824" lon="37.7257049829"><ele>2720.67</ele><time>2015-03-30T08:53:58Z</time></trkpt><trkpt lat="12.8461307846" lon="37.7271448262"><ele>2718.75</ele><time>2015-03-30T08:54:06Z</time></trkpt><trkpt lat="12.8474920057" lon="37.7289009187"><ele>2717.30</ele><time>2015-03-30T08:54:17Z</time></trkpt><trkpt lat="12.8499351628" lon="37.7315159887"><ele>2716.82</ele><time>2015-03-30T08:54:35Z</time></trkpt><trkpt lat="12.8511153348" lon="37.7321454696"><ele>2716.82</ele><time>2015-03-30T08:54:42Z</time></trkpt><trkpt lat="12.8524809983" lon="37.7322527580"><ele>2716.82</ele><time>2015-03-30T08:54:49Z</time></trkpt><trkpt lat="12.8538705502" lon="37.7318243589"><ele>2717.30</ele><time>2015-03-30T08:54:57Z</time></trkpt><trkpt lat="12.8554745950" lon="37.7311053593"><ele>2719.23</ele><time>2015-03-30T08:55:09Z</time></trkpt><trkpt lat="12.8569308668" lon="37.7307332866"><ele>2722.11</ele><time>2015-03-30T08:55:21Z</time></trkpt><trkpt lat="12.8590666596" lon="37.7308926266"><ele>2726.92</ele><time>2015-03-30T08:55:38Z</time></trkpt><trkpt lat="12.8607334848" lon="37.7314064372"><ele>2732.20</ele><time>2015-03-30T08:55:51Z</time></trkpt><trkpt lat="12.8628148790" lon="37.7321789134"><ele>2738.93</ele><time>2015-03-30T08:56:08Z</time></trkpt><trkpt lat="12.8635684960" lon="37.7329369728"><ele>2742.30</ele><time>2015-03-30T08:56:16Z</time></trkpt><trkpt lat="12.8639725037" lon="37.7339998819"><ele>2746.14</ele><time>2015-03-30T08:56:24Z</time></trkpt><trkpt lat="12.8638724238" lon="37.7352233045"><ele>2749.51</ele><time>2015-03-30T08:56:32Z</time></trkpt><trkpt lat="12.8637253214" lon="37.7358243708"><ele>2751.91</ele><time>2015-03-30T08:56:36Z</time></trkpt><trkpt lat="12.8639636189" lon="37.7367806621"><ele>2757.20</ele><time>2015-03-30T08:56:43Z</time></trkpt><trkpt lat="12.8646248672" lon="37.7373010945"><ele>2760.08</ele><time>2015-03-30T08:56:49Z</time></trkpt><trkpt lat="12.8655071463" lon="37.7373461053"><ele>2762.97</ele><time>2015-03-30T08:56:55Z</time></trkpt><trkpt lat="12.8665763419" lon="37.7370664012"><ele>2765.37</ele><time>2015-03-30T08:57:02Z</time></trkpt><trkpt lat="12.8676256724" lon="37.7371974941"><ele>2768.25</ele><time>2015-03-30T08:57:09Z</time></trkpt><trkpt lat="12.8691095207" lon="37.7369585261"><ele>2772.58</ele><time>2015-03-30T08:57:19Z</time></trkpt><trkpt lat="12.8710941877" lon="37.7367315441"><ele>2774.98</ele><time>2015-03-30T08:57:32Z</time></trkpt><trkpt lat="12.8721734416" lon="37.7371213865"><ele>2774.50</ele><time>2015-03-30T08:57:40Z</time></trkpt><trkpt lat="12.8740450367" lon="37.7380084433"><ele>2779.31</ele><time>2015-03-30T08:57:56Z</time></trkpt><trkpt lat="12.8747962229" lon="37.7383656800"><ele>2781.23</ele><time>2015-03-30T08:58:07Z</time></trkpt><trkpt lat="12.8755648434" lon="37.7387215756"><ele>2781.23</ele><time>2015-03-30T08:58:16Z</time></trkpt><trkpt lat="12.8761368245" lon="37.7389468811"><ele>2779.79</ele><time>2015-03-30T08:58:21Z</time></trkpt><trkpt lat="12.8768353723" lon="37.7388272714"><ele>2777.87</ele><time>2015-03-30T08:58:27Z</time></trkpt><trkpt lat="12.8769327700" lon="37.7387585398"><ele>2777.39</ele><time>2015-03-30T08:58:28Z</time></trkpt><trkpt lat="12.8782271873" lon="37.7377423178"><ele>2773.06</ele><time>2015-03-30T08:58:39Z</time></trkpt><trkpt lat="12.8794369474" lon="37.7368155308"><ele>2768.25</ele><time>2015-03-30T08:58:50Z</time></trkpt><trkpt lat="12.8797750734" lon="37.7366408519"><ele>2767.29</ele><time>2015-03-30T08:58:53Z</time></trkpt><trkpt lat="12.8807752859" lon="37.7365665045"><ele>2764.89</ele><time>2015-03-30T08:59:00Z</time></trkpt><trkpt lat="12.8812181856" lon="37.7367392555"><ele>2762.97</ele><time>2015-03-30T08:59:03Z</time></trkpt><trkpt lat="12.8826343082" lon="37.7375455946"><ele>2756.24</ele><time>2015-03-30T08:59:13Z</time></trkpt><trkpt lat="12.8837758396" lon="37.7375110611"><ele>2751.91</ele><time>2015-03-30T08:59:20Z</time></trkpt><trkpt lat="12.8841075953" lon="37.7373796329"><ele>2750.95</ele><time>2015-03-30T08:59:22Z</time></trkpt><trkpt lat="12.8866731282" lon="37.7360319067"><ele>2741.34</ele><time>2015-03-30T08:59:37Z</time></trkpt><trkpt lat="12.8883215133" lon="37.7350978274"><ele>2735.09</ele><time>2015-03-30T08:59:47Z</time></trkpt><trkpt lat="12.8892787267" lon="37.7340066712"><ele>2731.24</ele><time>2015-03-30T08:59:55Z</time></trkpt><trkpt lat="12.8903185017" lon="37.7331869211"><ele>2728.36</ele><time>2015-03-30T09:00:02Z</time></trkpt><trkpt lat="12.8915758710" lon="37.7328484599"><ele>2726.92</ele><time>2015-03-30T09:00:09Z</time></trkpt><trkpt lat="12.8928781673" lon="37.7330785431"><ele>2725.96</ele><time>2015-03-30T09:00:16Z</time></trkpt><trkpt lat="12.8935538325" lon="37.7334107179"><ele>2725.96</ele><time>2015-03-30T09:00:20Z</time></trkpt><trkpt lat="12.8942531347" lon="37.7340475749"><ele>2726.44</ele><time>2015-03-30T09:00:25Z</time></trkpt><trkpt lat="12.8951778263" lon="37.7355624363"><ele>2729.80</ele><time>2015-03-30T09:00:35Z</time></trkpt><trkpt lat="12.8962088842" lon="37.7363371756"><ele>2731.24</ele><time>2015-03-30T09:00:43Z</time></trkpt><trkpt lat="12.8975125216" lon="37.7366253454"><ele>2731.24</ele><time>2015-03-30T09:00:51Z</time></trkpt><trkpt lat="12.8988806996" lon="37.7365185600"><ele>2728.84</ele><time>2015-03-30T09:01:00Z</time></trkpt><trkpt lat="12.9001121689" lon="37.7365423646"><ele>2725.48</ele><time>2015-03-30T09:01:08Z</time></trkpt><trkpt lat="12.9008279834" lon="37.7369047143"><ele>2724.03</ele><time>2015-03-30T09:01:13Z</time></trkpt><trkpt lat="12.9021491390" lon="37.7377401385"><ele>2718.27</ele><time>2015-03-30T09:01:23Z</time></trkpt><trkpt lat="12.9022815730" lon="37.7378460020"><ele>2717.30</ele><time>2015-03-30T09:01:24Z</time></trkpt><trkpt lat="12.9029105511" lon="37.7388654929"><ele>2712.98</ele><time>2015-03-30T09:01:31Z</time></trkpt><trkpt lat="12.9029795341" lon="37.7394163515"><ele>2710.57</ele><time>2015-03-30T09:01:34Z</time></trkpt><trkpt lat="12.9031895846" lon="37.7412221488"><ele>2701.92</ele><time>2015-03-30T09:01:44Z</time></trkpt><trkpt lat="12.9040211532" lon="37.7422009036"><ele>2694.23</ele><time>2015-03-30T09:01:51Z</time></trkpt><trkpt lat="12.9052615911" lon="37.7429392654"><ele>2684.62</ele><time>2015-03-30T09:01:59Z</time></trkpt><trkpt lat="12.9068256542" lon="37.7430091705"><ele>2675.01</ele><time>2015-03-30T09:02:08Z</time></trkpt><trkpt lat="12.9092249740" lon="37.7431205660"><ele>2662.51</ele><time>2015-03-30T09:02:21Z</time></trkpt><trkpt lat="12.9111191165" lon="37.7437983267"><ele>2659.62</ele><time>2015-03-30T09:02:32Z</time></trkpt><trkpt lat="12.9147102591" lon="37.7451148722"><ele>2656.26</ele><time>2015-03-30T09:02:53Z</time></trkpt><trkpt lat="12.9160724021" lon="37.7451955061"><ele>2652.90</ele><time>2015-03-30T09:03:00Z</time></trkpt><trkpt lat="12.9174729344" lon="37.7448207512"><ele>2648.09</ele><time>2015-03-30T09:03:08Z</time></trkpt><trkpt lat="12.9195594415" lon="37.7439466026"><ele>2639.92</ele><time>2015-03-30T09:03:22Z</time></trkpt><trkpt lat="12.9208503384" lon="37.7435567603"><ele>2636.07</ele><time>2015-03-30T09:03:32Z</time></trkpt><trkpt lat="12.9225615039" lon="37.7433681674"><ele>2631.27</ele><time>2015-03-30T09:03:42Z</time></trkpt><trkpt lat="12.9240596853" lon="37.7436248213"><ele>2627.42</ele><time>2015-03-30T09:03:50Z</time></trkpt><trkpt lat="12.9259337112" lon="37.7438882645"><ele>2621.17</ele><time>2015-03-30T09:04:00Z</time></trkpt><trkpt lat="12.9304646328" lon="37.7442377061"><ele>2619.73</ele><time>2015-03-30T09:04:23Z</time></trkpt><trkpt lat="12.9335958604" lon="37.7444850560"><ele>2623.58</ele><time>2015-03-30T09:04:40Z</time></trkpt><trkpt lat="12.9360696953" lon="37.7445687912"><ele>2628.86</ele><time>2015-03-30T09:04:54Z</time></trkpt><trkpt lat="12.9377729818" lon="37.7441130672"><ele>2630.79</ele><time>2015-03-30T09:05:04Z</time></trkpt><trkpt lat="12.9394382983" lon="37.7438659687"><ele>2630.79</ele><time>2015-03-30T09:05:13Z</time></trkpt><trkpt lat="12.9409674089" lon="37.7442261390"><ele>2630.79</ele><time>2015-03-30T09:05:21Z</time></trkpt><trkpt lat="12.9430187959" lon="37.7453334723"><ele>2631.75</ele><time>2015-03-30T09:05:33Z</time></trkpt><trkpt lat="12.9455989972" lon="37.7466862276"><ele>2632.23</ele><time>2015-03-30T09:05:48Z</time></trkpt><trkpt lat="12.9482021648" lon="37.7477403358"><ele>2626.46</ele><time>2015-03-30T09:06:04Z</time></trkpt><trkpt lat="12.9511191510" lon="37.7488841303"><ele>2614.92</ele><time>2015-03-30T09:06:21Z</time></trkpt><trkpt lat="12.9551990423" lon="37.7504657954"><ele>2603.87</ele><time>2015-03-30T09:06:43Z</time></trkpt><trkpt lat="12.9589172546" lon="37.7517765574"><ele>2600.50</ele><time>2015-03-30T09:07:04Z</time></trkpt><trkpt lat="12.9604706727" lon="37.7517519146"><ele>2601.46</ele><time>2015-03-30T09:07:13Z</time></trkpt><trkpt lat="12.9625339620" lon="37.7511682827"><ele>2600.50</ele><time>2015-03-30T09:07:24Z</time></trkpt><trkpt lat="12.9646232352" lon="37.7507258859"><ele>2598.58</ele><time>2015-03-30T09:07:35Z</time></trkpt><trkpt lat="12.9663504940" lon="37.7511447296"><ele>2595.70</ele><time>2015-03-30T09:07:44Z</time></trkpt><trkpt lat="12.9685785715" lon="37.7521855105"><ele>2592.33</ele><time>2015-03-30T09:07:57Z</time></trkpt><trkpt lat="12.9699554667" lon="37.7528084535"><ele>2590.41</ele><time>2015-03-30T09:08:09Z</time></trkpt><trkpt lat="12.9715025146" lon="37.7533619944"><ele>2591.37</ele><time>2015-03-30T09:08:23Z</time></trkpt><trkpt lat="12.9730307031" lon="37.7535156347"><ele>2591.37</ele><time>2015-03-30T09:08:33Z</time></trkpt><trkpt lat="12.9753025342" lon="37.7536057401"><ele>2590.89</ele><time>2015-03-30T09:08:47Z</time></trkpt><trkpt lat="12.9766326584" lon="37.7539059799"><ele>2588.97</ele><time>2015-03-30T09:08:56Z</time></trkpt><trkpt lat="12.9778513871" lon="37.7546943817"><ele>2586.08</ele><time>2015-03-30T09:09:05Z</time></trkpt><trkpt lat="12.9785998072" lon="37.7557668462"><ele>2584.16</ele><time>2015-03-30T09:09:13Z</time></trkpt><trkpt lat="12.9800668918" lon="37.7582381666"><ele>2576.95</ele><time>2015-03-30T09:09:29Z</time></trkpt><trkpt lat="12.9806980491" lon="37.7592422348"><ele>2576.95</ele><time>2015-03-30T09:09:38Z</time></trkpt><trkpt lat="12.9809640069" lon="37.7596697118"><ele>2577.43</ele><time>2015-03-30T09:09:46Z</time></trkpt><trkpt lat="12.9815846868" lon="37.7606083173"><ele>2580.80</ele><time>2015-03-30T09:09:59Z</time></trkpt><trkpt lat="12.9824901000" lon="37.7620755695"><ele>2585.60</ele><time>2015-03-30T09:10:13Z</time></trkpt><trkpt lat="12.9829360172" lon="37.7634703182"><ele>2588.97</ele><time>2015-03-30T09:10:25Z</time></trkpt><trkpt lat="12.9833944235" lon="37.7651355509"><ele>2592.81</ele><time>2015-03-30T09:10:40Z</time></trkpt><trkpt lat="12.9839170352" lon="37.7666829340"><ele>2598.10</ele><time>2015-03-30T09:10:58Z</time></trkpt><trkpt lat="12.9842534848" lon="37.7673438471"><ele>2599.06</ele><time>2015-03-30T09:11:09Z</time></trkpt><trkpt lat="12.9845367093" lon="37.7678758465"><ele>2600.02</ele><time>2015-03-30T09:11:19Z</time></trkpt><trkpt lat="12.9851126298" lon="37.7688783221"><ele>2600.02</ele><time>2015-03-30T09:11:29Z</time></trkpt><trkpt lat="12.9852955230" lon="37.7692093235"><ele>2600.02</ele><time>2015-03-30T09:11:32Z</time></trkpt><trkpt lat="12.9857201502" lon="37.7696215454"><ele>2600.50</ele><time>2015-03-30T09:11:37Z</time></trkpt><trkpt lat="12.9869201034" lon="37.7701364458"><ele>2601.95</ele><time>2015-03-30T09:11:49Z</time></trkpt><trkpt lat="12.9887341149" lon="37.7708247676"><ele>2607.71</ele><time>2015-03-30T09:12:08Z</time></trkpt><trkpt lat="12.9898471478" lon="37.7716840804"><ele>2612.52</ele><time>2015-03-30T09:12:20Z</time></trkpt><trkpt lat="12.9915554635" lon="37.7733181324"><ele>2622.13</ele><time>2015-03-30T09:12:38Z</time></trkpt><trkpt lat="12.9932425730" lon="37.7749479096"><ele>2631.27</ele><time>2015-03-30T09:12:55Z</time></trkpt><trkpt lat="12.9939229321" lon="37.7756148577"><ele>2635.59</ele><time>2015-03-30T09:13:05Z</time></trkpt><trkpt lat="12.9948627111" lon="37.7765133977"><ele>2637.99</ele><time>2015-03-30T09:13:15Z</time></trkpt><trkpt lat="12.9963463917" lon="37.7775975130"><ele>2635.59</ele><time>2015-03-30T09:13:27Z</time></trkpt><trkpt lat="12.9977507796" lon="37.7780903690"><ele>2634.15</ele><time>2015-03-30T09:13:36Z</time></trkpt><trkpt lat="12.9994625319" lon="37.7787508629"><ele>2635.11</ele><time>2015-03-30T09:13:48Z</time></trkpt><trkpt lat="13.0013403296" lon="37.7796105109"><ele>2637.51</ele><time>2015-03-30T09:14:01Z</time></trkpt><trkpt lat="13.0033461191" lon="37.7798996866"><ele>2639.44</ele><time>2015-03-30T09:14:13Z</time></trkpt><trkpt lat="13.0053002760" lon="37.7802453563"><ele>2640.88</ele><time>2015-03-30T09:14:25Z</time></trkpt><trkpt lat="13.0065054260" lon="37.7809178364"><ele>2640.40</ele><time>2015-03-30T09:14:33Z</time></trkpt><trkpt lat="13.0075944867" lon="37.7820491418"><ele>2639.92</ele><time>2015-03-30T09:14:41Z</time></trkpt><trkpt lat="13.0096170399" lon="37.7841390017"><ele>2637.99</ele><time>2015-03-30T09:14:55Z</time></trkpt><trkpt lat="13.0120376498" lon="37.7856090199"><ele>2641.36</ele><time>2015-03-30T09:15:09Z</time></trkpt><trkpt lat="13.0166948866" lon="37.7884281054"><ele>2649.53</ele><time>2015-03-30T09:15:36Z</time></trkpt><trkpt lat="13.0185809825" lon="37.7893396374"><ele>2652.42</ele><time>2015-03-30T09:15:47Z</time></trkpt><trkpt lat="13.0200894736" lon="37.7895006537"><ele>2653.86</ele><time>2015-03-30T09:15:55Z</time></trkpt><trkpt lat="13.0216553807" lon="37.7891052794"><ele>2656.26</ele><time>2015-03-30T09:16:04Z</time></trkpt><trkpt lat="13.0235095415" lon="37.7886595298"><ele>2661.07</ele><time>2015-03-30T09:16:16Z</time></trkpt><trkpt lat="13.0249035358" lon="37.7888171934"><ele>2665.87</ele><time>2015-03-30T09:16:26Z</time></trkpt><trkpt lat="13.0271562561" lon="37.7895079460"><ele>2672.12</ele><time>2015-03-30T09:16:43Z</time></trkpt><trkpt lat="13.0283405352" lon="37.7903049812"><ele>2679.33</ele><time>2015-03-30T09:16:55Z</time></trkpt><trkpt lat="13.0298393872" lon="37.7916154079"><ele>2687.50</ele><time>2015-03-30T09:17:13Z</time></trkpt><trkpt lat="13.0301465001" lon="37.7925799135"><ele>2688.94</ele><time>2015-03-30T09:17:20Z</time></trkpt><trkpt lat="13.0303445645" lon="37.7947018761"><ele>2689.91</ele><time>2015-03-30T09:17:32Z</time></trkpt><trkpt lat="13.0305753183" lon="37.7953948919"><ele>2690.39</ele><time>2015-03-30T09:17:36Z</time></trkpt><trkpt lat="13.0314968247" lon="37.7963612415"><ele>2688.94</ele><time>2015-03-30T09:17:44Z</time></trkpt><trkpt lat="13.0321066082" lon="37.7964868862"><ele>2687.02</ele><time>2015-03-30T09:17:48Z</time></trkpt><trkpt lat="13.0336720124" lon="37.7967144549"><ele>2682.22</ele><time>2015-03-30T09:17:57Z</time></trkpt><trkpt lat="13.0344660301" lon="37.7972003538"><ele>2679.33</ele><time>2015-03-30T09:18:02Z</time></trkpt><trkpt lat="13.0359503813" lon="37.7990228310"><ele>2670.68</ele><time>2015-03-30T09:18:14Z</time></trkpt><trkpt lat="13.0370885599" lon="37.8011077456"><ele>2663.47</ele><time>2015-03-30T09:18:26Z</time></trkpt><trkpt lat="13.0380730145" lon="37.8024922684"><ele>2664.43</ele><time>2015-03-30T09:18:35Z</time></trkpt><trkpt lat="13.0399591941" lon="37.8040416632"><ele>2666.83</ele><time>2015-03-30T09:18:48Z</time></trkpt><trkpt lat="13.0422087293" lon="37.8052647505"><ele>2671.16</ele><time>2015-03-30T09:19:02Z</time></trkpt><trkpt lat="13.0438165460" lon="37.8055537585"><ele>2674.04</ele><time>2015-03-30T09:19:11Z</time></trkpt><trkpt lat="13.0461948272" lon="37.8055405151"><ele>2677.89</ele><time>2015-03-30T09:19:24Z</time></trkpt><trkpt lat="13.0477809347" lon="37.8055234160"><ele>2679.33</ele><time>2015-03-30T09:19:33Z</time></trkpt><trkpt lat="13.0490224622" lon="37.8063013405"><ele>2680.77</ele><time>2015-03-30T09:19:41Z</time></trkpt><trkpt lat="13.0493548885" lon="37.8067501076"><ele>2681.73</ele><time>2015-03-30T09:19:44Z</time></trkpt><trkpt lat="13.0494426470" lon="37.8075133637"><ele>2683.18</ele><time>2015-03-30T09:19:48Z</time></trkpt><trkpt lat="13.0495389551" lon="37.8095232602"><ele>2689.43</ele><time>2015-03-30T09:20:00Z</time></trkpt><trkpt lat="13.0498025659" lon="37.8115894832"><ele>2694.71</ele><time>2015-03-30T09:20:15Z</time></trkpt><trkpt lat="13.0495755002" lon="37.8132000659"><ele>2703.36</ele><time>2015-03-30T09:20:28Z</time></trkpt><trkpt lat="13.0490638688" lon="37.8140525892"><ele>2708.17</ele><time>2015-03-30T09:20:37Z</time></trkpt><trkpt lat="13.0486305244" lon="37.8151856549"><ele>2714.42</ele><time>2015-03-30T09:20:49Z</time></trkpt><trkpt lat="13.0486907065" lon="37.8164657392"><ele>2719.71</ele><time>2015-03-30T09:21:01Z</time></trkpt><trkpt lat="13.0491588358" lon="37.8175651096"><ele>2724.03</ele><time>2015-03-30T09:21:11Z</time></trkpt><trkpt lat="13.0500644166" lon="37.8192970622"><ele>2727.40</ele><time>2015-03-30T09:21:24Z</time></trkpt><trkpt lat="13.0510374717" lon="37.8210397437"><ele>2728.36</ele><time>2015-03-30T09:21:35Z</time></trkpt><trkpt lat="13.0519248638" lon="37.8217706457"><ele>2727.88</ele><time>2015-03-30T09:21:42Z</time></trkpt><trkpt lat="13.0529652257" lon="37.8218591586"><ele>2723.55</ele><time>2015-03-30T09:21:48Z</time></trkpt><trkpt lat="13.0539974570" lon="37.8213657998"><ele>2716.34</ele><time>2015-03-30T09:21:54Z</time></trkpt><trkpt lat="13.0541246943" lon="37.8212497942"><ele>2716.34</ele><time>2015-03-30T09:21:55Z</time></trkpt><trkpt lat="13.0552221369" lon="37.8204007074"><ele>2712.50</ele><time>2015-03-30T09:22:04Z</time></trkpt><trkpt lat="13.0556852371" lon="37.8202777449"><ele>2711.06</ele><time>2015-03-30T09:22:07Z</time></trkpt><trkpt lat="13.0568446219" lon="37.8205047268"><ele>2708.65</ele><time>2015-03-30T09:22:14Z</time></trkpt><trkpt lat="13.0571441073" lon="37.8206892963"><ele>2708.65</ele><time>2015-03-30T09:22:16Z</time></trkpt><trkpt lat="13.0592976697" lon="37.8222424630"><ele>2708.65</ele><time>2015-03-30T09:22:31Z</time></trkpt><trkpt lat="13.0608235113" lon="37.8226767294"><ele>2710.57</ele><time>2015-03-30T09:22:40Z</time></trkpt><trkpt lat="13.0620196927" lon="37.8225902282"><ele>2711.54</ele><time>2015-03-30T09:22:47Z</time></trkpt><trkpt lat="13.0623563938" lon="37.8225182276"><ele>2711.54</ele><time>2015-03-30T09:22:49Z</time></trkpt><trkpt lat="13.0633512419" lon="37.8227302898"><ele>2713.94</ele><time>2015-03-30T09:22:56Z</time></trkpt><trkpt lat="13.0637150165" lon="37.8231378179"><ele>2714.42</ele><time>2015-03-30T09:23:00Z</time></trkpt><trkpt lat="13.0641507078" lon="37.8240219411"><ele>2716.82</ele><time>2015-03-30T09:23:08Z</time></trkpt><trkpt lat="13.0653099250" lon="37.8252092376"><ele>2720.19</ele><time>2015-03-30T09:23:22Z</time></trkpt><trkpt lat="13.0665522907" lon="37.8261724021"><ele>2721.15</ele><time>2015-03-30T09:23:34Z</time></trkpt><trkpt lat="13.0678482167" lon="37.8265185747"><ele>2722.11</ele><time>2015-03-30T09:23:44Z</time></trkpt><trkpt lat="13.0682655517" lon="37.8266109433"><ele>2722.59</ele><time>2015-03-30T09:23:47Z</time></trkpt><trkpt lat="13.0690275505" lon="37.8271623887"><ele>2723.55</ele><time>2015-03-30T09:23:54Z</time></trkpt><trkpt lat="13.0691053346" lon="37.8272828367"><ele>2723.55</ele><time>2015-03-30T09:23:55Z</time></trkpt><trkpt lat="13.0696068238" lon="37.8280286584"><ele>2724.51</ele><time>2015-03-30T09:24:01Z</time></trkpt><trkpt lat="13.0708355270" lon="37.8289027233"><ele>2727.88</ele><time>2015-03-30T09:24:11Z</time></trkpt><trkpt lat="13.0715494137" lon="37.8291433677"><ele>2728.84</ele><time>2015-03-30T09:24:16Z</time></trkpt><trkpt lat="13.0728889257" lon="37.8290303797"><ele>2730.76</ele><time>2015-03-30T09:24:25Z</time></trkpt><trkpt lat="13.0733525287" lon="37.8290903941"><ele>2732.20</ele><time>2015-03-30T09:24:29Z</time></trkpt><trkpt lat="13.0737792514" lon="37.8292806633"><ele>2733.17</ele><time>2015-03-30T09:24:33Z</time></trkpt><trkpt lat="13.0746648833" lon="37.8302200232"><ele>2735.09</ele><time>2015-03-30T09:24:43Z</time></trkpt><trkpt lat="13.0756520201" lon="37.8315248340"><ele>2737.01</ele><time>2015-03-30T09:24:54Z</time></trkpt><trkpt lat="13.0767528992" lon="37.8321010061"><ele>2737.97</ele><time>2015-03-30T09:25:02Z</time></trkpt><trkpt lat="13.0780950096" lon="37.8325840551"><ele>2738.93</ele><time>2015-03-30T09:25:11Z</time></trkpt><trkpt lat="13.0794218648" lon="37.8331680223"><ele>2740.86</ele><time>2015-03-30T09:25:20Z</time></trkpt><trkpt lat="13.0807191320" lon="37.8331435472"><ele>2741.82</ele><time>2015-03-30T09:25:28Z</time></trkpt><trkpt lat="13.0822452251" lon="37.8328084387"><ele>2743.74</ele><time>2015-03-30T09:25:37Z</time></trkpt><trkpt lat="13.0834717490" lon="37.8330432996"><ele>2745.66</ele><time>2015-03-30T09:25:44Z</time></trkpt><trkpt lat="13.0845454708" lon="37.8337494750"><ele>2747.59</ele><time>2015-03-30T09:25:51Z</time></trkpt><trkpt lat="13.0849307869" lon="37.8341597691"><ele>2747.59</ele><time>2015-03-30T09:25:54Z</time></trkpt><trkpt lat="13.0855745170" lon="37.8352821898"><ele>2748.55</ele><time>2015-03-30T09:26:01Z</time></trkpt><trkpt lat="13.0866545253" lon="37.8362611122"><ele>2748.55</ele><time>2015-03-30T09:26:09Z</time></trkpt><trkpt lat="13.0882170796" lon="37.8368922696"><ele>2746.14</ele><time>2015-03-30T09:26:19Z</time></trkpt><trkpt lat="13.0898185261" lon="37.8378544282"><ele>2743.26</ele><time>2015-03-30T09:26:29Z</time></trkpt><trkpt lat="13.0899688136" lon="37.8379759658"><ele>2743.26</ele><time>2015-03-30T09:26:30Z</time></trkpt><trkpt lat="13.0911423638" lon="37.8394659329"><ele>2740.86</ele><time>2015-03-30T09:26:41Z</time></trkpt><trkpt lat="13.0926255416" lon="37.8414490912"><ele>2737.49</ele><time>2015-03-30T09:26:54Z</time></trkpt><trkpt lat="13.0933664180" lon="37.8431790322"><ele>2734.13</ele><time>2015-03-30T09:27:03Z</time></trkpt><trkpt lat="13.0936874449" lon="37.8440500796"><ele>2732.68</ele><time>2015-03-30T09:27:09Z</time></trkpt><trkpt lat="13.0942170974" lon="37.8452656232"><ele>2730.28</ele><time>2015-03-30T09:27:19Z</time></trkpt><trkpt lat="13.0950380210" lon="37.8461717907"><ele>2727.88</ele><time>2015-03-30T09:27:26Z</time></trkpt><trkpt lat="13.0966331810" lon="37.8472934570"><ele>2723.07</ele><time>2015-03-30T09:27:36Z</time></trkpt><trkpt lat="13.0976513308" lon="37.8483428713"><ele>2719.23</ele><time>2015-03-30T09:27:43Z</time></trkpt><trkpt lat="13.0991224386" lon="37.8497361112"><ele>2715.86</ele><time>2015-03-30T09:27:53Z</time></trkpt><trkpt lat="13.1008246355" lon="37.8511905391"><ele>2717.30</ele><time>2015-03-30T09:28:05Z</time></trkpt><trkpt lat="13.1023432687" lon="37.8520377818"><ele>2720.19</ele><time>2015-03-30T09:28:15Z</time></trkpt><trkpt lat="13.1040281989" lon="37.8531669918"><ele>2722.11</ele><time>2015-03-30T09:28:26Z</time></trkpt><trkpt lat="13.1045734417" lon="37.8542284761"><ele>2724.03</ele><time>2015-03-30T09:28:33Z</time></trkpt><trkpt lat="13.1048098113" lon="37.8550879564"><ele>2725.48</ele><time>2015-03-30T09:28:39Z</time></trkpt><trkpt lat="13.1056185812" lon="37.8560814634"><ele>2728.36</ele><time>2015-03-30T09:28:48Z</time></trkpt><trkpt lat="13.1065508164" lon="37.8570250981"><ele>2730.28</ele><time>2015-03-30T09:28:56Z</time></trkpt><trkpt lat="13.1069716718" lon="37.8581774421"><ele>2731.24</ele><time>2015-03-30T09:29:03Z</time></trkpt><trkpt lat="13.1073260587" lon="37.8599812277"><ele>2732.68</ele><time>2015-03-30T09:29:13Z</time></trkpt><trkpt lat="13.1081788335" lon="37.8613628168"><ele>2732.68</ele><time>2015-03-30T09:29:21Z</time></trkpt><trkpt lat="13.1102130376" lon="37.8643420804"><ele>2734.13</ele><time>2015-03-30T09:29:39Z</time></trkpt><trkpt lat="13.1113779545" lon="37.8656140342"><ele>2734.61</ele><time>2015-03-30T09:29:49Z</time></trkpt><trkpt lat="13.1119180843" lon="37.8665963095"><ele>2737.01</ele><time>2015-03-30T09:29:57Z</time></trkpt><trkpt lat="13.1125473138" lon="37.8675912414"><ele>2741.82</ele><time>2015-03-30T09:30:10Z</time></trkpt><trkpt lat="13.1137634441" lon="37.8688549809"><ele>2746.62</ele><time>2015-03-30T09:30:24Z</time></trkpt><trkpt lat="13.1146122795" lon="37.8701096680"><ele>2749.51</ele><time>2015-03-30T09:30:35Z</time></trkpt><trkpt lat="13.1157600135" lon="37.8710682224"><ele>2753.83</ele><time>2015-03-30T09:30:45Z</time></trkpt><trkpt lat="13.1165150553" lon="37.8716072626"><ele>2755.76</ele><time>2015-03-30T09:30:51Z</time></trkpt><trkpt lat="13.1172605418" lon="37.8728086408"><ele>2759.60</ele><time>2015-03-30T09:31:00Z</time></trkpt><trkpt lat="13.1174569298" lon="37.8740969393"><ele>2762.00</ele><time>2015-03-30T09:31:08Z</time></trkpt><trkpt lat="13.1174900383" lon="37.8753833938"><ele>2766.81</ele><time>2015-03-30T09:31:16Z</time></trkpt><trkpt lat="13.1178331934" lon="37.8765688464"><ele>2772.58</ele><time>2015-03-30T09:31:24Z</time></trkpt><trkpt lat="13.1177487038" lon="37.8776874952"><ele>2778.83</ele><time>2015-03-30T09:31:32Z</time></trkpt><trkpt lat="13.1177336164" lon="37.8780341707"><ele>2780.75</ele><time>2015-03-30T09:31:36Z</time></trkpt><trkpt lat="13.1178951357" lon="37.8789713513"><ele>2787.96</ele><time>2015-03-30T09:31:50Z</time></trkpt><trkpt lat="13.1182108819" lon="37.8798835538"><ele>2794.69</ele><time>2015-03-30T09:32:03Z</time></trkpt><trkpt lat="13.1186275464" lon="37.8805636615"><ele>2799.98</ele><time>2015-03-30T09:32:14Z</time></trkpt><trkpt lat="13.1192027964" lon="37.8812748659"><ele>2801.90</ele><time>2015-03-30T09:32:24Z</time></trkpt><trkpt lat="13.1200797111" lon="37.8819258884"><ele>2799.50</ele><time>2015-03-30T09:32:37Z</time></trkpt><trkpt lat="13.1208948512" lon="37.8824228514"><ele>2799.02</ele><time>2015-03-30T09:32:46Z</time></trkpt><trkpt lat="13.1219255738" lon="37.8831094131"><ele>2797.09</ele><time>2015-03-30T09:32:55Z</time></trkpt><trkpt lat="13.1238733605" lon="37.8843621723"><ele>2793.73</ele><time>2015-03-30T09:33:09Z</time></trkpt><trkpt lat="13.1247967109" lon="37.8850708622"><ele>2794.69</ele><time>2015-03-30T09:33:18Z</time></trkpt><trkpt lat="13.1260197982" lon="37.8862499446"><ele>2796.13</ele><time>2015-03-30T09:33:31Z</time></trkpt><trkpt lat="13.1273612380" lon="37.8876727726"><ele>2793.73</ele><time>2015-03-30T09:33:43Z</time></trkpt><trkpt lat="13.1281342171" lon="37.8891415335"><ele>2788.44</ele><time>2015-03-30T09:33:52Z</time></trkpt><trkpt lat="13.1291017402" lon="37.8905693069"><ele>2782.67</ele><time>2015-03-30T09:34:02Z</time></trkpt><trkpt lat="13.1304289307" lon="37.8913821839"><ele>2781.71</ele><time>2015-03-30T09:34:11Z</time></trkpt><trkpt lat="13.1315706298" lon="37.8916144464"><ele>2781.71</ele><time>2015-03-30T09:34:18Z</time></trkpt><trkpt lat="13.1332637742" lon="37.8916394245"><ele>2783.63</ele><time>2015-03-30T09:34:30Z</time></trkpt><trkpt lat="13.1353723258" lon="37.8918190487"><ele>2790.84</ele><time>2015-03-30T09:34:46Z</time></trkpt><trkpt lat="13.1363966782" lon="37.8924089670"><ele>2798.05</ele><time>2015-03-30T09:34:56Z</time></trkpt><trkpt lat="13.1370666437" lon="37.8932483308"><ele>2804.78</ele><time>2015-03-30T09:35:06Z</time></trkpt><trkpt lat="13.1378295645" lon="37.8940975014"><ele>2811.99</ele><time>2015-03-30T09:35:18Z</time></trkpt><trkpt lat="13.1386740413" lon="37.8943922091"><ele>2817.28</ele><time>2015-03-30T09:35:28Z</time></trkpt><trkpt lat="13.1388824154" lon="37.8944015130"><ele>2818.24</ele><time>2015-03-30T09:35:30Z</time></trkpt><trkpt lat="13.1398690492" lon="37.8940930590"><ele>2822.09</ele><time>2015-03-30T09:35:39Z</time></trkpt><trkpt lat="13.1405660883" lon="37.8935629036"><ele>2824.49</ele><time>2015-03-30T09:35:47Z</time></trkpt><trkpt lat="13.1413386483" lon="37.8934719600"><ele>2827.37</ele><time>2015-03-30T09:35:55Z</time></trkpt><trkpt lat="13.1414300948" lon="37.8934997041"><ele>2827.37</ele><time>2015-03-30T09:35:56Z</time></trkpt><trkpt lat="13.1425959338" lon="37.8937263507"><ele>2830.26</ele><time>2015-03-30T09:36:08Z</time></trkpt><trkpt lat="13.1443057582" lon="37.8938006144"><ele>2830.74</ele><time>2015-03-30T09:36:23Z</time></trkpt><trkpt lat="13.1454203837" lon="37.8942793049"><ele>2832.66</ele><time>2015-03-30T09:36:34Z</time></trkpt><trkpt lat="13.1465789303" lon="37.8944030218"><ele>2834.10</ele><time>2015-03-30T09:36:45Z</time></trkpt><trkpt lat="13.1480401475" lon="37.8945285827"><ele>2835.06</ele><time>2015-03-30T09:36:58Z</time></trkpt><trkpt lat="13.1489132904" lon="37.8947641980"><ele>2836.51</ele><time>2015-03-30T09:37:08Z</time></trkpt><trkpt lat="13.1492665038" lon="37.8948742524"><ele>2838.43</ele><time>2015-03-30T09:37:17Z</time></trkpt><trkpt lat="13.1492626481" lon="37.8948745877"><ele>2838.43</ele><time>2015-03-30T09:37:33Z</time></trkpt><trkpt lat="13.1492581218" lon="37.8948848136"><ele>2839.39</ele><time>2015-03-30T09:38:03Z</time></trkpt><trkpt lat="13.1492392626" lon="37.8948905971"><ele>2840.83</ele><time>2015-03-30T09:38:44Z</time></trkpt><trkpt lat="13.1492524222" lon="37.8948755097"><ele>2839.39</ele><time>2015-03-30T09:39:15Z</time></trkpt><trkpt lat="13.1492577866" lon="37.8948674630"><ele>2836.51</ele><time>2015-03-30T09:39:47Z</time></trkpt><trkpt lat="13.1492590439" lon="37.8948684689"><ele>2836.51</ele><time>2015-03-30T09:40:07Z</time></trkpt><trkpt lat="13.1492755562" lon="37.8948850650"><ele>2835.06</ele><time>2015-03-30T09:40:30Z</time></trkpt><trkpt lat="13.1492683478" lon="37.8948989790"><ele>2835.06</ele><time>2015-03-30T09:40:58Z</time></trkpt><trkpt lat="13.1492609717" lon="37.8949203528"><ele>2834.10</ele><time>2015-03-30T09:41:28Z</time></trkpt><trkpt lat="13.1493146997" lon="37.8949252144"><ele>2831.70</ele><time>2015-03-30T09:41:44Z</time></trkpt><trkpt lat="13.1492976844" lon="37.8949369490"><ele>2830.74</ele><time>2015-03-30T09:41:50Z</time></trkpt><trkpt lat="13.1492292881" lon="37.8949432354"><ele>2828.82</ele><time>2015-03-30T09:42:03Z</time></trkpt><trkpt lat="13.1492224988" lon="37.8949539643"><ele>2828.82</ele><time>2015-03-30T09:42:18Z</time></trkpt><trkpt lat="13.1492273603" lon="37.8949167486"><ele>2828.34</ele><time>2015-03-30T09:42:22Z</time></trkpt><trkpt lat="13.1493328884" lon="37.8948925249"><ele>2828.34</ele><time>2015-03-30T09:42:31Z</time></trkpt><trkpt lat="13.1493587885" lon="37.8948716540"><ele>2828.34</ele><time>2015-03-30T09:42:34Z</time></trkpt><trkpt lat="13.1493965909" lon="37.8948403895"><ele>2829.30</ele><time>2015-03-30T09:42:39Z</time></trkpt><trkpt lat="13.1494053081" lon="37.8947862424"><ele>2829.78</ele><time>2015-03-30T09:42:44Z</time></trkpt><trkpt lat="13.1494149473" lon="37.8947637789"><ele>2830.26</ele><time>2015-03-30T09:42:50Z</time></trkpt><trkpt lat="13.1493770611" lon="37.8947304189"><ele>2830.74</ele><time>2015-03-30T09:42:54Z</time></trkpt><trkpt lat="13.1494215690" lon="37.8947380465"><ele>2830.74</ele><time>2015-03-30T09:43:08Z</time></trkpt><trkpt lat="13.1493893825" lon="37.8947206959"><ele>2829.30</ele><time>2015-03-30T09:43:29Z</time></trkpt><trkpt lat="13.1492490694" lon="37.8946498688"><ele>2830.74</ele><time>2015-03-30T09:43:43Z</time></trkpt><trkpt lat="13.1492534280" lon="37.8946397267"><ele>2831.22</ele><time>2015-03-30T09:43:44Z</time></trkpt><trkpt lat="13.1492749695" lon="37.8946207836"><ele>2831.22</ele><time>2015-03-30T09:43:47Z</time></trkpt><trkpt lat="13.1493757199" lon="37.8946370445"><ele>2832.18</ele><time>2015-03-30T09:44:02Z</time></trkpt><trkpt lat="13.1494026259" lon="37.8946459293"><ele>2830.74</ele><time>2015-03-30T09:44:16Z</time></trkpt><trkpt lat="13.1494101696" lon="37.8946472704"><ele>2830.74</ele><time>2015-03-30T09:44:35Z</time></trkpt><trkpt lat="13.1493361574" lon="37.8946880065"><ele>2831.22</ele><time>2015-03-30T09:44:58Z</time></trkpt><trkpt lat="13.1494051404" lon="37.8946125694"><ele>2827.37</ele><time>2015-03-30T09:52:52Z</time></trkpt><trkpt lat="13.1493825931" lon="37.8946476057"><ele>2834.10</ele><time>2015-03-30T09:53:06Z</time></trkpt><trkpt lat="13.1493976805" lon="37.8946527187"><ele>2833.62</ele><time>2015-03-30T09:53:30Z</time></trkpt><trkpt lat="13.1493901368" lon="37.8946375474"><ele>2834.58</ele><time>2015-03-30T09:53:51Z</time></trkpt><trkpt lat="13.1493768096" lon="37.8946528863"><ele>2833.62</ele><time>2015-03-30T09:54:19Z</time></trkpt><trkpt lat="13.1493747979" lon="37.8946559876"><ele>2832.18</ele><time>2015-03-30T09:54:41Z</time></trkpt><trkpt lat="13.1493971776" lon="37.8946481086"><ele>2832.18</ele><time>2015-03-30T09:55:05Z</time></trkpt><trkpt lat="13.1494079065" lon="37.8946658783"><ele>2833.62</ele><time>2015-03-30T09:55:23Z</time></trkpt><trkpt lat="13.1494013686" lon="37.8946597595"><ele>2835.55</ele><time>2015-03-30T09:55:37Z</time></trkpt><trkpt lat="13.1494038831" lon="37.8946652077"><ele>2836.99</ele><time>2015-03-30T09:55:52Z</time></trkpt><trkpt lat="13.1493966747" lon="37.8946291655"><ele>2836.99</ele><time>2015-03-30T09:56:18Z</time></trkpt><trkpt lat="13.1493923999" lon="37.8946253937"><ele>2836.99</ele><time>2015-03-30T09:56:19Z</time></trkpt><trkpt lat="13.1493659131" lon="37.8945847414"><ele>2836.51</ele><time>2015-03-30T09:56:26Z</time></trkpt><trkpt lat="13.1492815912" lon="37.8946035169"><ele>2836.99</ele><time>2015-03-30T09:56:31Z</time></trkpt><trkpt lat="13.1492388435" lon="37.8946366254"><ele>2836.99</ele><time>2015-03-30T09:56:39Z</time></trkpt><trkpt lat="13.1492758915" lon="37.8946969751"><ele>2836.51</ele><time>2015-03-30T09:56:44Z</time></trkpt><trkpt lat="13.1493966747" lon="37.8947570734"><ele>2836.03</ele><time>2015-03-30T09:56:59Z</time></trkpt><trkpt lat="13.1494086608" lon="37.8947714064"><ele>2835.06</ele><time>2015-03-30T09:57:06Z</time></trkpt><trkpt lat="13.1493960042" lon="37.8947915230"><ele>2833.14</ele><time>2015-03-30T09:57:17Z</time></trkpt><trkpt lat="13.1493898854" lon="37.8948076162"><ele>2833.14</ele><time>2015-03-30T09:57:25Z</time></trkpt><trkpt lat="13.1493142806" lon="37.8949042596"><ele>2833.14</ele><time>2015-03-30T09:57:35Z</time></trkpt><trkpt lat="13.1492769811" lon="37.8949323390"><ele>2833.14</ele><time>2015-03-30T09:57:47Z</time></trkpt><trkpt lat="13.1492705271" lon="37.8949379548"><ele>2836.03</ele><time>2015-03-30T09:58:02Z</time></trkpt><trkpt lat="13.1492530089" lon="37.8949411400"><ele>2840.83</ele><time>2015-03-30T09:58:29Z</time></trkpt><trkpt lat="13.1492223311" lon="37.8949109651"><ele>2845.64</ele><time>2015-03-30T09:58:54Z</time></trkpt><trkpt lat="13.1492107641" lon="37.8949125577"><ele>2849.00</ele><time>2015-03-30T09:59:26Z</time></trkpt><trkpt lat="13.1492285337" lon="37.8948814608"><ele>2850.45</ele><time>2015-03-30T09:59:55Z</time></trkpt><trkpt lat="13.1492113508" lon="37.8948576562"><ele>2850.93</ele><time>2015-03-30T10:00:13Z</time></trkpt><trkpt lat="13.1492530927" lon="37.8948346060"><ele>2846.12</ele><time>2015-03-30T10:00:35Z</time></trkpt><trkpt lat="13.1492628995" lon="37.8948568180"><ele>2841.31</ele><time>2015-03-30T10:00:59Z</time></trkpt><trkpt lat="13.1492576189" lon="37.8948700614"><ele>2839.87</ele><time>2015-03-30T10:01:28Z</time></trkpt><trkpt lat="13.1492634863" lon="37.8948738333"><ele>2840.35</ele><time>2015-03-30T10:01:42Z</time></trkpt><trkpt lat="13.1497902051" lon="37.8949546348"><ele>2839.39</ele><time>2015-03-30T10:01:57Z</time></trkpt><trkpt lat="13.1502966397" lon="37.8950475063"><ele>2838.91</ele><time>2015-03-30T10:02:05Z</time></trkpt><trkpt lat="13.1515250076" lon="37.8955341596"><ele>2848.04</ele><time>2015-03-30T10:02:12Z</time></trkpt><trkpt lat="13.1518890336" lon="37.8958706930"><ele>2839.87</ele><time>2015-03-30T10:02:16Z</time></trkpt><trkpt lat="13.1521521416" lon="37.8964355495"><ele>2836.03</ele><time>2015-03-30T10:02:21Z</time></trkpt><trkpt lat="13.1524206977" lon="37.8979235888"><ele>2834.10</ele><time>2015-03-30T10:02:34Z</time></trkpt><trkpt lat="13.1524963863" lon="37.8980736248"><ele>2833.62</ele><time>2015-03-30T10:02:36Z</time></trkpt><trkpt lat="13.1527101249" lon="37.8982959967"><ele>2831.22</ele><time>2015-03-30T10:02:41Z</time></trkpt><trkpt lat="13.1535416935" lon="37.8985528182"><ele>2827.37</ele><time>2015-03-30T10:02:53Z</time></trkpt><trkpt lat="13.1548210233" lon="37.8984316159"><ele>2832.66</ele><time>2015-03-30T10:03:05Z</time></trkpt><trkpt lat="13.1570527889" lon="37.8983324580"><ele>2837.95</ele><time>2015-03-30T10:03:28Z</time></trkpt><trkpt lat="13.1581842620" lon="37.8983003553"><ele>2841.31</ele><time>2015-03-30T10:03:43Z</time></trkpt><trkpt lat="13.1584370602" lon="37.8983515687"><ele>2842.76</ele><time>2015-03-30T10:03:53Z</time></trkpt><trkpt lat="13.1582819112" lon="37.8989379667"><ele>2845.64</ele><time>2015-03-30T10:04:04Z</time></trkpt><trkpt lat="13.1586360466" lon="37.9001469724"><ele>2854.77</ele><time>2015-03-30T10:04:21Z</time></trkpt><trkpt lat="13.1587313488" lon="37.9004731961"><ele>2860.06</ele><time>2015-03-30T10:04:28Z</time></trkpt><trkpt lat="13.1590733305" lon="37.9010257311"><ele>2864.87</ele><time>2015-03-30T10:04:38Z</time></trkpt><trkpt lat="13.1593350135" lon="37.9019168951"><ele>2865.35</ele><time>2015-03-30T10:04:47Z</time></trkpt><trkpt lat="13.1593934353" lon="37.9025565181"><ele>2865.35</ele><time>2015-03-30T10:04:53Z</time></trkpt><trkpt lat="13.1590349413" lon="37.9039283004"><ele>2864.87</ele><time>2015-03-30T10:05:04Z</time></trkpt><trkpt lat="13.1586499605" lon="37.9051480349"><ele>2865.35</ele><time>2015-03-30T10:05:15Z</time></trkpt><trkpt lat="13.1583832484" lon="37.9061241075"><ele>2866.79</ele><time>2015-03-30T10:05:29Z</time></trkpt><trkpt lat="13.1581433583" lon="37.9071364738"><ele>2866.31</ele><time>2015-03-30T10:05:38Z</time></trkpt><trkpt lat="13.1577523425" lon="37.9085686896"><ele>2868.23</ele><time>2015-03-30T10:05:50Z</time></trkpt><trkpt lat="13.1576364208" lon="37.9089731164"><ele>2869.19</ele><time>2015-03-30T10:05:57Z</time></trkpt><trkpt lat="13.1575349160" lon="37.9090514034"><ele>2870.15</ele><time>2015-03-30T10:06:10Z</time></trkpt><trkpt lat="13.1576557830" lon="37.9094399046"><ele>2870.15</ele><time>2015-03-30T10:06:21Z</time></trkpt><trkpt lat="13.1578014605" lon="37.9104700405"><ele>2873.52</ele><time>2015-03-30T10:06:33Z</time></trkpt><trkpt lat="13.1578645762" lon="37.9123292305"><ele>2878.32</ele><time>2015-03-30T10:06:51Z</time></trkpt><trkpt lat="13.1574809365" lon="37.9132761341"><ele>2881.69</ele><time>2015-03-30T10:06:59Z</time></trkpt><trkpt lat="13.1565010920" lon="37.9141761828"><ele>2886.98</ele><time>2015-03-30T10:07:09Z</time></trkpt><trkpt lat="13.1555383466" lon="37.9145099502"><ele>2892.26</ele><time>2015-03-30T10:07:18Z</time></trkpt><trkpt lat="13.1549029984" lon="37.9144826252"><ele>2895.15</ele><time>2015-03-30T10:07:24Z</time></trkpt><trkpt lat="13.1544849090" lon="37.9143032525"><ele>2897.55</ele><time>2015-03-30T10:07:28Z</time></trkpt><trkpt lat="13.1538871117" lon="37.9138987418"><ele>2901.40</ele><time>2015-03-30T10:07:34Z</time></trkpt><trkpt lat="13.1530599017" lon="37.9137439281"><ele>2906.68</ele><time>2015-03-30T10:07:42Z</time></trkpt><trkpt lat="13.1526825484" lon="37.9142242111"><ele>2911.49</ele><time>2015-03-30T10:07:49Z</time></trkpt><trkpt lat="13.1526433211" lon="37.9148231819"><ele>2915.34</ele><time>2015-03-30T10:07:55Z</time></trkpt><trkpt lat="13.1521372218" lon="37.9154084064"><ele>2920.62</ele><time>2015-03-30T10:08:04Z</time></trkpt><trkpt lat="13.1519513112" lon="37.9154718574"><ele>2921.58</ele><time>2015-03-30T10:08:06Z</time></trkpt><trkpt lat="13.1505935267" lon="37.9157104902"><ele>2922.54</ele><time>2015-03-30T10:08:20Z</time></trkpt><trkpt lat="13.1499095634" lon="37.9159646295"><ele>2919.18</ele><time>2015-03-30T10:08:30Z</time></trkpt><trkpt lat="13.1486973725" lon="37.9163120594"><ele>2913.89</ele><time>2015-03-30T10:08:41Z</time></trkpt><trkpt lat="13.1467221770" lon="37.9163780250"><ele>2904.76</ele><time>2015-03-30T10:08:58Z</time></trkpt><trkpt lat="13.1454124209" lon="37.9164456669"><ele>2897.55</ele><time>2015-03-30T10:09:09Z</time></trkpt><trkpt lat="13.1449080817" lon="37.9163093772"><ele>2894.67</ele><time>2015-03-30T10:09:13Z</time></trkpt><trkpt lat="13.1435502134" lon="37.9157596920"><ele>2887.94</ele><time>2015-03-30T10:09:24Z</time></trkpt><trkpt lat="13.1422540359" lon="37.9158597719"><ele>2882.65</ele><time>2015-03-30T10:09:33Z</time></trkpt><trkpt lat="13.1418336835" lon="37.9160081316"><ele>2881.21</ele><time>2015-03-30T10:09:36Z</time></trkpt><trkpt lat="13.1413388997" lon="37.9164957907"><ele>2878.32</ele><time>2015-03-30T10:09:41Z</time></trkpt><trkpt lat="13.1410417613" lon="37.9172650818"><ele>2873.04</ele><time>2015-03-30T10:09:49Z</time></trkpt><trkpt lat="13.1411177013" lon="37.9175157845"><ele>2867.75</ele><time>2015-03-30T10:09:58Z</time></trkpt><trkpt lat="13.1412014365" lon="37.9174456280"><ele>2863.42</ele><time>2015-03-30T10:10:16Z</time></trkpt><trkpt lat="13.1412161887" lon="37.9173888825"><ele>2859.10</ele><time>2015-03-30T10:10:42Z</time></trkpt><trkpt lat="13.1411395781" lon="37.9173759744"><ele>2857.18</ele><time>2015-03-30T10:11:11Z</time></trkpt><trkpt lat="13.1411580183" lon="37.9173777346"><ele>2852.85</ele><time>2015-03-30T10:11:42Z</time></trkpt><trkpt lat="13.1409478839" lon="37.9177612066"><ele>2852.37</ele><time>2015-03-30T10:11:52Z</time></trkpt><trkpt lat="13.1402080972" lon="37.9188514408"><ele>2852.37</ele><time>2015-03-30T10:12:05Z</time></trkpt><trkpt lat="13.1392309349" lon="37.9196222406"><ele>2854.29</ele><time>2015-03-30T10:12:16Z</time></trkpt><trkpt lat="13.1384986080" lon="37.9201029427"><ele>2852.37</ele><time>2015-03-30T10:12:24Z</time></trkpt><trkpt lat="13.1382327341" lon="37.9205769394"><ele>2850.45</ele><time>2015-03-30T10:12:29Z</time></trkpt><trkpt lat="13.1375776883" lon="37.9219702631"><ele>2843.24</ele><time>2015-03-30T10:12:43Z</time></trkpt><trkpt lat="13.1375160813" lon="37.9220508132"><ele>2842.76</ele><time>2015-03-30T10:12:44Z</time></trkpt><trkpt lat="13.1371837389" lon="37.9223281704"><ele>2839.87</ele><time>2015-03-30T10:12:48Z</time></trkpt><trkpt lat="13.1368936412" lon="37.9224725906"><ele>2837.95</ele><time>2015-03-30T10:12:51Z</time></trkpt><trkpt lat="13.1354946177" lon="37.9227682203"><ele>2826.41</ele><time>2015-03-30T10:13:04Z</time></trkpt><trkpt lat="13.1341504958" lon="37.9229741637"><ele>2816.32</ele><time>2015-03-30T10:13:16Z</time></trkpt><trkpt lat="13.1332530454" lon="37.9232941009"><ele>2808.15</ele><time>2015-03-30T10:13:26Z</time></trkpt><trkpt lat="13.1325374823" lon="37.9240162857"><ele>2801.90</ele><time>2015-03-30T10:13:36Z</time></trkpt><trkpt lat="13.1324398331" lon="37.9242105782"><ele>2800.46</ele><time>2015-03-30T10:13:38Z</time></trkpt><trkpt lat="13.1323681679" lon="37.9247692320"><ele>2796.61</ele><time>2015-03-30T10:13:43Z</time></trkpt><trkpt lat="13.1325472891" lon="37.9256467335"><ele>2787.00</ele><time>2015-03-30T10:13:55Z</time></trkpt><trkpt lat="13.1326358020" lon="37.9264715128"><ele>2775.94</ele><time>2015-03-30T10:14:08Z</time></trkpt><trkpt lat="13.1327500474" lon="37.9275966994"><ele>2765.37</ele><time>2015-03-30T10:14:25Z</time></trkpt><trkpt lat="13.1326577626" lon="37.9277413711"><ele>2763.93</ele><time>2015-03-30T10:14:31Z</time></trkpt><trkpt lat="13.1324203871" lon="37.9274962842"><ele>2761.52</ele><time>2015-03-30T10:14:39Z</time></trkpt><trkpt lat="13.1322970893" lon="37.9271464236"><ele>2759.60</ele><time>2015-03-30T10:14:45Z</time></trkpt><trkpt lat="13.1320179719" lon="37.9269781150"><ele>2756.72</ele><time>2015-03-30T10:14:55Z</time></trkpt><trkpt lat="13.1319334824" lon="37.9271978047"><ele>2754.31</ele><time>2015-03-30T10:15:05Z</time></trkpt><trkpt lat="13.1321078259" lon="37.9278660100"><ele>2748.55</ele><time>2015-03-30T10:15:17Z</time></trkpt><trkpt lat="13.1322308723" lon="37.9280691873"><ele>2747.10</ele><time>2015-03-30T10:15:21Z</time></trkpt><trkpt lat="13.1325053796" lon="37.9284022003"><ele>2742.78</ele><time>2015-03-30T10:15:34Z</time></trkpt><trkpt lat="13.1325527374" lon="37.9287052900"><ele>2737.01</ele><time>2015-03-30T10:15:49Z</time></trkpt><trkpt lat="13.1323253363" lon="37.9294203501"><ele>2734.61</ele><time>2015-03-30T10:16:06Z</time></trkpt><trkpt lat="13.1323654857" lon="37.9303397611"><ele>2733.65</ele><time>2015-03-30T10:16:23Z</time></trkpt><trkpt lat="13.1326389872" lon="37.9308544938"><ele>2735.09</ele><time>2015-03-30T10:16:32Z</time></trkpt><trkpt lat="13.1328897737" lon="37.9310884327"><ele>2736.53</ele><time>2015-03-30T10:16:37Z</time></trkpt><trkpt lat="13.1343792379" lon="37.9319383577"><ele>2750.47</ele><time>2015-03-30T10:17:03Z</time></trkpt><trkpt lat="13.1355599966" lon="37.9326799046"><ele>2767.29</ele><time>2015-03-30T10:17:24Z</time></trkpt><trkpt lat="13.1357916724" lon="37.9331641272"><ele>2773.06</ele><time>2015-03-30T10:17:32Z</time></trkpt><trkpt lat="13.1357879844" lon="37.9338053428"><ele>2779.31</ele><time>2015-03-30T10:17:41Z</time></trkpt><trkpt lat="13.1358873937" lon="37.9340669420"><ele>2782.19</ele><time>2015-03-30T10:17:45Z</time></trkpt><trkpt lat="13.1363787409" lon="37.9344103485"><ele>2788.92</ele><time>2015-03-30T10:17:54Z</time></trkpt><trkpt lat="13.1366247497" lon="37.9344624002"><ele>2791.81</ele><time>2015-03-30T10:17:58Z</time></trkpt><trkpt lat="13.1369199604" lon="37.9348252527"><ele>2798.05</ele><time>2015-03-30T10:18:06Z</time></trkpt><trkpt lat="13.1371695735" lon="37.9358817916"><ele>2811.03</ele><time>2015-03-30T10:18:23Z</time></trkpt><trkpt lat="13.1371420808" lon="37.9361951072"><ele>2815.36</ele><time>2015-03-30T10:18:28Z</time></trkpt><trkpt lat="13.1370632909" lon="37.9364463966"><ele>2818.24</ele><time>2015-03-30T10:18:32Z</time></trkpt><trkpt lat="13.1372726709" lon="37.9367990233"><ele>2824.01</ele><time>2015-03-30T10:18:40Z</time></trkpt><trkpt lat="13.1373342779" lon="37.9368158709"><ele>2824.97</ele><time>2015-03-30T10:18:41Z</time></trkpt><trkpt lat="13.1381163932" lon="37.9368436988"><ele>2830.74</ele><time>2015-03-30T10:18:53Z</time></trkpt><trkpt lat="13.1384231709" lon="37.9356668796"><ele>2849.48</ele><time>2015-03-30T10:19:08Z</time></trkpt><trkpt lat="13.1394306757" lon="37.9356923606"><ele>2849.00</ele><time>2015-03-30T10:19:24Z</time></trkpt><trkpt lat="13.1396518741" lon="37.9358902574"><ele>2850.45</ele><time>2015-03-30T10:19:29Z</time></trkpt><trkpt lat="13.1400614977" lon="37.9363910761"><ele>2853.81</ele><time>2015-03-30T10:19:39Z</time></trkpt><trkpt lat="13.1401642598" lon="37.9366382584"><ele>2854.77</ele><time>2015-03-30T10:19:43Z</time></trkpt><trkpt lat="13.1402415410" lon="37.9370734468"><ele>2858.14</ele><time>2015-03-30T10:19:48Z</time></trkpt><trkpt lat="13.1399886589" lon="37.9375320207"><ele>2863.42</ele><time>2015-03-30T10:19:56Z</time></trkpt><trkpt lat="13.1395360362" lon="37.9380203504"><ele>2869.67</ele><time>2015-03-30T10:20:05Z</time></trkpt><trkpt lat="13.1394839007" lon="37.9382757470"><ele>2871.11</ele><time>2015-03-30T10:20:09Z</time></trkpt><trkpt lat="13.1395633612" lon="37.9389477242"><ele>2876.40</ele><time>2015-03-30T10:20:19Z</time></trkpt><trkpt lat="13.1400942709" lon="37.9399172589"><ele>2886.98</ele><time>2015-03-30T10:20:35Z</time></trkpt><trkpt lat="13.1407512445" lon="37.9412689246"><ele>2897.55</ele><time>2015-03-30T10:20:56Z</time></trkpt><trkpt lat="13.1414647959" lon="37.9422346037"><ele>2906.68</ele><time>2015-03-30T10:21:14Z</time></trkpt><trkpt lat="13.1420087814" lon="37.9431403521"><ele>2912.45</ele><time>2015-03-30T10:21:29Z</time></trkpt><trkpt lat="13.1428711955" lon="37.9440467712"><ele>2920.62</ele><time>2015-03-30T10:21:47Z</time></trkpt><trkpt lat="13.1435676478" lon="37.9450685252"><ele>2929.75</ele><time>2015-03-30T10:22:04Z</time></trkpt><trkpt lat="13.1435103156" lon="37.9459699150"><ele>2935.52</ele><time>2015-03-30T10:22:16Z</time></trkpt><trkpt lat="13.1429804116" lon="37.9466713127"><ele>2943.69</ele><time>2015-03-30T10:22:28Z</time></trkpt><trkpt lat="13.1425185688" lon="37.9470451456"><ele>2948.02</ele><time>2015-03-30T10:22:37Z</time></trkpt><trkpt lat="13.1426359992" lon="37.9475001991"><ele>2951.87</ele><time>2015-03-30T10:22:47Z</time></trkpt><trkpt lat="13.1428393442" lon="37.9475590400"><ele>2952.35</ele><time>2015-03-30T10:22:50Z</time></trkpt><trkpt lat="13.1440475956" lon="37.9470264539"><ele>2953.79</ele><time>2015-03-30T10:23:03Z</time></trkpt><trkpt lat="13.1443127152" lon="37.9471473210"><ele>2959.56</ele><time>2015-03-30T10:23:13Z</time></trkpt><trkpt lat="13.1446813513" lon="37.9478581063"><ele>2967.25</ele><time>2015-03-30T10:23:32Z</time></trkpt><trkpt lat="13.1453226507" lon="37.9487769306"><ele>2981.67</ele><time>2015-03-30T10:23:55Z</time></trkpt><trkpt lat="13.1462297402" lon="37.9493211675"><ele>2996.09</ele><time>2015-03-30T10:24:15Z</time></trkpt><trkpt lat="13.1472501531" lon="37.9499084875"><ele>3009.06</ele><time>2015-03-30T10:24:37Z</time></trkpt><trkpt lat="13.1484708935" lon="37.9505273234"><ele>3022.04</ele><time>2015-03-30T10:25:00Z</time></trkpt><trkpt lat="13.1493800785" lon="37.9508374538"><ele>3029.25</ele><time>2015-03-30T10:25:20Z</time></trkpt><trkpt lat="13.1493892986" lon="37.9508817103"><ele>3029.25</ele><time>2015-03-30T10:25:21Z</time></trkpt><trkpt lat="13.1499788817" lon="37.9513930064"><ele>3031.17</ele><time>2015-03-30T10:25:38Z</time></trkpt><trkpt lat="13.1509341672" lon="37.9516878817"><ele>3039.83</ele><time>2015-03-30T10:25:59Z</time></trkpt><trkpt lat="13.1523248088" lon="37.9522057157"><ele>3046.56</ele><time>2015-03-30T10:26:19Z</time></trkpt><trkpt lat="13.1537606288" lon="37.9529219493"><ele>3055.69</ele><time>2015-03-30T10:26:38Z</time></trkpt><trkpt lat="13.1549325027" lon="37.9535654280"><ele>3061.94</ele><time>2015-03-30T10:26:54Z</time></trkpt><trkpt lat="13.1552484166" lon="37.9537509196"><ele>3055.69</ele><time>2015-03-30T10:27:03Z</time></trkpt><trkpt lat="13.1557727046" lon="37.9540627263"><ele>3052.80</ele><time>2015-03-30T10:27:17Z</time></trkpt><trkpt lat="13.1563737709" lon="37.9541509040"><ele>3054.73</ele><time>2015-03-30T10:27:31Z</time></trkpt><trkpt lat="13.1575108599" lon="37.9544898681"><ele>3058.57</ele><time>2015-03-30T10:27:49Z</time></trkpt><trkpt lat="13.1586933788" lon="37.9549856577"><ele>3061.94</ele><time>2015-03-30T10:28:04Z</time></trkpt><trkpt lat="13.1593656912" lon="37.9557417892"><ele>3063.86</ele><time>2015-03-30T10:28:15Z</time></trkpt><trkpt lat="13.1596831977" lon="37.9561942443"><ele>3065.78</ele><time>2015-03-30T10:28:26Z</time></trkpt><trkpt lat="13.1602038816" lon="37.9569932073"><ele>3074.91</ele><time>2015-03-30T10:28:43Z</time></trkpt><trkpt lat="13.1605280936" lon="37.9575475026"><ele>3083.09</ele><time>2015-03-30T10:28:56Z</time></trkpt><trkpt lat="13.1607691571" lon="37.9580374248"><ele>3092.22</ele><time>2015-03-30T10:29:12Z</time></trkpt><trkpt lat="13.1611744221" lon="37.9586224817"><ele>3101.35</ele><time>2015-03-30T10:29:28Z</time></trkpt><trkpt lat="13.1612023339" lon="37.9586563446"><ele>3101.83</ele><time>2015-03-30T10:29:29Z</time></trkpt><trkpt lat="13.1613559742" lon="37.9588783812"><ele>3104.71</ele><time>2015-03-30T10:29:35Z</time></trkpt><trkpt lat="13.1618491653" lon="37.9593040980"><ele>3113.85</ele><time>2015-03-30T10:29:53Z</time></trkpt><trkpt lat="13.1621206552" lon="37.9599183239"><ele>3119.13</ele><time>2015-03-30T10:30:07Z</time></trkpt><trkpt lat="13.1628276687" lon="37.9607133474"><ele>3124.42</ele><time>2015-03-30T10:30:21Z</time></trkpt><trkpt lat="13.1638183258" lon="37.9614355322"><ele>3127.79</ele><time>2015-03-30T10:30:34Z</time></trkpt><trkpt lat="13.1649337895" lon="37.9620485008"><ele>3130.19</ele><time>2015-03-30T10:30:51Z</time></trkpt><trkpt lat="13.1661854591" lon="37.9627717752"><ele>3136.44</ele><time>2015-03-30T10:31:11Z</time></trkpt><trkpt lat="13.1661448069" lon="37.9627778940"><ele>3141.25</ele><time>2015-03-30T10:31:18Z</time></trkpt><trkpt lat="13.1659743190" lon="37.9627317097"><ele>3137.40</ele><time>2015-03-30T10:31:50Z</time></trkpt><trkpt lat="13.1659563817" lon="37.9627053067"><ele>3131.63</ele><time>2015-03-30T10:32:23Z</time></trkpt><trkpt lat="13.1659310684" lon="37.9627076536"><ele>3132.59</ele><time>2015-03-30T10:32:56Z</time></trkpt><trkpt lat="13.1659469940" lon="37.9627107549"><ele>3132.59</ele><time>2015-03-30T10:33:03Z</time></trkpt><trkpt lat="13.1663828529" lon="37.9629439395"><ele>3132.59</ele><time>2015-03-30T10:33:17Z</time></trkpt><trkpt lat="13.1672621146" lon="37.9633981548"><ele>3135.00</ele><time>2015-03-30T10:33:32Z</time></trkpt><trkpt lat="13.1673897710" lon="37.9637325089"><ele>3135.96</ele><time>2015-03-30T10:33:38Z</time></trkpt><trkpt lat="13.1674162578" lon="37.9640502669"><ele>3135.96</ele><time>2015-03-30T10:33:43Z</time></trkpt><trkpt lat="13.1676554773" lon="37.9642129596"><ele>3137.88</ele><time>2015-03-30T10:33:49Z</time></trkpt><trkpt lat="13.1688754633" lon="37.9640447348"><ele>3147.49</ele><time>2015-03-30T10:34:07Z</time></trkpt><trkpt lat="13.1701580621" lon="37.9636005778"><ele>3154.22</ele><time>2015-03-30T10:34:27Z</time></trkpt><trkpt lat="13.1715419143" lon="37.9630908743"><ele>3157.11</ele><time>2015-03-30T10:34:44Z</time></trkpt><trkpt lat="13.1730922312" lon="37.9629473761"><ele>3157.11</ele><time>2015-03-30T10:35:01Z</time></trkpt><trkpt lat="13.1745983753" lon="37.9631349631"><ele>3156.63</ele><time>2015-03-30T10:35:15Z</time></trkpt><trkpt lat="13.1758818123" lon="37.9635859933"><ele>3156.15</ele><time>2015-03-30T10:35:31Z</time></trkpt><trkpt lat="13.1772631500" lon="37.9639458284"><ele>3156.15</ele><time>2015-03-30T10:35:49Z</time></trkpt><trkpt lat="13.1778781302" lon="37.9640193377"><ele>3156.63</ele><time>2015-03-30T10:35:55Z</time></trkpt><trkpt lat="13.1791827735" lon="37.9637261387"><ele>3157.59</ele><time>2015-03-30T10:36:07Z</time></trkpt><trkpt lat="13.1806556415" lon="37.9634855781"><ele>3159.99</ele><time>2015-03-30T10:36:20Z</time></trkpt><trkpt lat="13.1815885473" lon="37.9639408831"><ele>3159.51</ele><time>2015-03-30T10:36:30Z</time></trkpt><trkpt lat="13.1828784384" lon="37.9646610562"><ele>3159.03</ele><time>2015-03-30T10:36:44Z</time></trkpt><trkpt lat="13.1841215584" lon="37.9652845021"><ele>3163.84</ele><time>2015-03-30T10:36:59Z</time></trkpt><trkpt lat="13.1852347590" lon="37.9658838920"><ele>3169.60</ele><time>2015-03-30T10:37:17Z</time></trkpt><trkpt lat="13.1857610587" lon="37.9666214157"><ele>3174.41</ele><time>2015-03-30T10:37:29Z</time></trkpt><trkpt lat="13.1862198841" lon="37.9682110436"><ele>3179.22</ele><time>2015-03-30T10:37:45Z</time></trkpt><trkpt lat="13.1867947150" lon="37.9696544074"><ele>3184.50</ele><time>2015-03-30T10:38:02Z</time></trkpt><trkpt lat="13.1877640821" lon="37.9702717345"><ele>3186.43</ele><time>2015-03-30T10:38:14Z</time></trkpt><trkpt lat="13.1888859160" lon="37.9710124433"><ele>3188.83</ele><time>2015-03-30T10:38:29Z</time></trkpt><trkpt lat="13.1889379676" lon="37.9710769840"><ele>3188.83</ele><time>2015-03-30T10:38:30Z</time></trkpt><trkpt lat="13.1890840642" lon="37.9713577777"><ele>3188.83</ele><time>2015-03-30T10:38:34Z</time></trkpt><trkpt lat="13.1892556418" lon="37.9716211371"><ele>3189.79</ele><time>2015-03-30T10:38:38Z</time></trkpt><trkpt lat="13.1897967774" lon="37.9719005059"><ele>3189.31</ele><time>2015-03-30T10:38:45Z</time></trkpt><trkpt lat="13.1899776589" lon="37.9719394818"><ele>3189.31</ele><time>2015-03-30T10:38:47Z</time></trkpt><trkpt lat="13.1909827329" lon="37.9719640408"><ele>3187.39</ele><time>2015-03-30T10:39:00Z</time></trkpt><trkpt lat="13.1910670549" lon="37.9719799664"><ele>3186.43</ele><time>2015-03-30T10:39:01Z</time></trkpt><trkpt lat="13.1913164165" lon="37.9721227102"><ele>3185.47</ele><time>2015-03-30T10:39:05Z</time></trkpt><trkpt lat="13.1914071087" lon="37.9722249694"><ele>3184.98</ele><time>2015-03-30T10:39:07Z</time></trkpt><trkpt lat="13.1919769105" lon="37.9725116305"><ele>3184.50</ele><time>2015-03-30T10:39:15Z</time></trkpt><trkpt lat="13.1932179350" lon="37.9728674423"><ele>3181.62</ele><time>2015-03-30T10:39:30Z</time></trkpt><trkpt lat="13.1943487376" lon="37.9734549299"><ele>3182.10</ele><time>2015-03-30T10:39:45Z</time></trkpt><trkpt lat="13.1954481080" lon="37.9743203614"><ele>3186.43</ele><time>2015-03-30T10:40:02Z</time></trkpt><trkpt lat="13.1961497571" lon="37.9748204257"><ele>3187.87</ele><time>2015-03-30T10:40:14Z</time></trkpt><trkpt lat="13.1965271104" lon="37.9749539495"><ele>3187.87</ele><time>2015-03-30T10:40:19Z</time></trkpt><trkpt lat="13.1968659069" lon="37.9749377724"><ele>3188.35</ele><time>2015-03-30T10:40:23Z</time></trkpt><trkpt lat="13.1981053390" lon="37.9747038335"><ele>3189.31</ele><time>2015-03-30T10:40:38Z</time></trkpt><trkpt lat="13.1989570241" lon="37.9739119951"><ele>3190.27</ele><time>2015-03-30T10:40:53Z</time></trkpt><trkpt lat="13.1991146877" lon="37.9736828338"><ele>3190.27</ele><time>2015-03-30T10:41:02Z</time></trkpt><trkpt lat="13.1990551762" lon="37.9737105779"><ele>3188.83</ele><time>2015-03-30T10:41:17Z</time></trkpt><trkpt lat="13.1990567688" lon="37.9736902099"><ele>3190.75</ele><time>2015-03-30T10:41:36Z</time></trkpt><trkpt lat="13.1989988498" lon="37.9737215582"><ele>3194.12</ele><time>2015-03-30T10:42:02Z</time></trkpt><trkpt lat="13.1989902165" lon="37.9737120029"><ele>3196.04</ele><time>2015-03-30T10:42:23Z</time></trkpt><trkpt lat="13.1990044657" lon="37.9736549221"><ele>3195.56</ele><time>2015-03-30T10:42:48Z</time></trkpt><trkpt lat="13.1990814954" lon="37.9737190437"><ele>3195.08</ele><time>2015-03-30T10:43:13Z</time></trkpt><trkpt lat="13.1991457846" lon="37.9736835044"><ele>3196.52</ele><time>2015-03-30T10:43:24Z</time></trkpt><trkpt lat="13.1991572678" lon="37.9736742843"><ele>3197.48</ele><time>2015-03-30T10:43:48Z</time></trkpt><trkpt lat="13.1991421804" lon="37.9737042915"><ele>3200.85</ele><time>2015-03-30T10:44:32Z</time></trkpt><trkpt lat="13.1991385762" lon="37.9737125058"><ele>3201.81</ele><time>2015-03-30T10:45:16Z</time></trkpt><trkpt lat="13.1991306134" lon="37.9737197142"><ele>3203.73</ele><time>2015-03-30T10:45:58Z</time></trkpt><trkpt lat="13.1991304457" lon="37.9737113323"><ele>3203.25</ele><time>2015-03-30T10:46:42Z</time></trkpt><trkpt lat="13.1991293561" lon="37.9737176187"><ele>3203.73</ele><time>2015-03-30T10:47:35Z</time></trkpt><trkpt lat="13.1991400849" lon="37.9737170320"><ele>3201.33</ele><time>2015-03-30T10:48:22Z</time></trkpt><trkpt lat="13.1991392467" lon="37.9737122543"><ele>3199.40</ele><time>2015-03-30T10:49:01Z</time></trkpt><trkpt lat="13.1991431862" lon="37.9736912157"><ele>3197.48</ele><time>2015-03-30T10:49:45Z</time></trkpt><trkpt lat="13.1991477124" lon="37.9736806545"><ele>3196.04</ele><time>2015-03-30T10:50:31Z</time></trkpt><trkpt lat="13.1991535798" lon="37.9736972507"><ele>3196.52</ele><time>2015-03-30T10:51:19Z</time></trkpt><trkpt lat="13.1991544180" lon="37.9737001006"><ele>3197.00</ele><time>2015-03-30T10:52:06Z</time></trkpt><trkpt lat="13.1991581060" lon="37.9736952391"><ele>3194.12</ele><time>2015-03-30T10:52:53Z</time></trkpt><trkpt lat="13.1991620455" lon="37.9736828338"><ele>3193.16</ele><time>2015-03-30T10:53:32Z</time></trkpt><trkpt lat="13.1991614588" lon="37.9736718535"><ele>3193.16</ele><time>2015-03-30T10:54:18Z</time></trkpt><trkpt lat="13.1991580222" lon="37.9736773018"><ele>3195.56</ele><time>2015-03-30T10:55:18Z</time></trkpt><trkpt lat="13.1991586927" lon="37.9736768827"><ele>3197.00</ele><time>2015-03-30T10:55:56Z</time></trkpt><trkpt lat="13.1991587766" lon="37.9736871924"><ele>3197.48</ele><time>2015-03-30T10:56:31Z</time></trkpt><trkpt lat="13.1991558429" lon="37.9736783076"><ele>3198.44</ele><time>2015-03-30T10:56:56Z</time></trkpt><trkpt lat="13.1991519872" lon="37.9736773018"><ele>3197.96</ele><time>2015-03-30T10:57:23Z</time></trkpt><trkpt lat="13.1991529930" lon="37.9736780562"><ele>3196.52</ele><time>2015-03-30T10:57:58Z</time></trkpt><trkpt lat="13.1991585251" lon="37.9736860190"><ele>3197.48</ele><time>2015-03-30T10:58:31Z</time></trkpt><trkpt lat="13.1991555076" lon="37.9736865219"><ele>3197.96</ele><time>2015-03-30T10:59:05Z</time></trkpt><trkpt lat="13.1991891190" lon="37.9736376554"><ele>3197.48</ele><time>2015-03-30T10:59:38Z</time></trkpt><trkpt lat="13.1994977407" lon="37.9733289499"><ele>3200.37</ele><time>2015-03-30T10:59:52Z</time></trkpt><trkpt lat="13.1997379661" lon="37.9731489904"><ele>3203.25</ele><time>2015-03-30T11:00:01Z</time></trkpt><trkpt lat="13.2000127248" lon="37.9732857831"><ele>3205.17</ele><time>2015-03-30T11:00:07Z</time></trkpt><trkpt lat="13.2001591567" lon="37.9734668322"><ele>3205.65</ele><time>2015-03-30T11:00:10Z</time></trkpt><trkpt lat="13.2005246915" lon="37.9736333806"><ele>3207.10</ele><time>2015-03-30T11:00:15Z</time></trkpt><trkpt lat="13.2011274341" lon="37.9737771302"><ele>3208.54</ele><time>2015-03-30T11:00:22Z</time></trkpt><trkpt lat="13.2017320208" lon="37.9735939018"><ele>3210.46</ele><time>2015-03-30T11:00:30Z</time></trkpt><trkpt lat="13.2021949533" lon="37.9733374156"><ele>3209.50</ele><time>2015-03-30T11:00:37Z</time></trkpt><trkpt lat="13.2030005381" lon="37.9733706079"><ele>3208.54</ele><time>2015-03-30T11:00:45Z</time></trkpt><trkpt lat="13.2036853395" lon="37.9730290454"><ele>3208.06</ele><time>2015-03-30T11:00:53Z</time></trkpt><trkpt lat="13.2040826418" lon="37.9730164725"><ele>3206.61</ele><time>2015-03-30T11:00:58Z</time></trkpt><trkpt lat="13.2049835287" lon="37.9732161295"><ele>3207.58</ele><time>2015-03-30T11:01:08Z</time></trkpt><trkpt lat="13.2057759538" lon="37.9730210826"><ele>3212.86</ele><time>2015-03-30T11:01:21Z</time></trkpt><trkpt lat="13.2069044933" lon="37.9726130515"><ele>3219.11</ele><time>2015-03-30T11:01:38Z</time></trkpt><trkpt lat="13.2069709618" lon="37.9725966230"><ele>3219.11</ele><time>2015-03-30T11:01:39Z</time></trkpt><trkpt lat="13.2071937528" lon="37.9726442322"><ele>3221.03</ele><time>2015-03-30T11:01:43Z</time></trkpt><trkpt lat="13.2076366525" lon="37.9729017243"><ele>3225.36</ele><time>2015-03-30T11:01:55Z</time></trkpt><trkpt lat="13.2083357871" lon="37.9732774012"><ele>3229.69</ele><time>2015-03-30T11:02:07Z</time></trkpt><trkpt lat="13.2086876594" lon="37.9732661694"><ele>3232.57</ele><time>2015-03-30T11:02:13Z</time></trkpt><trkpt lat="13.2092655078" lon="37.9729099385"><ele>3239.30</ele><time>2015-03-30T11:02:23Z</time></trkpt><trkpt lat="13.2098437753" lon="37.9728462361"><ele>3244.11</ele><time>2015-03-30T11:02:32Z</time></trkpt><trkpt lat="13.2108044252" lon="37.9731596354"><ele>3247.95</ele><time>2015-03-30T11:02:44Z</time></trkpt><trkpt lat="13.2120298594" lon="37.9736056365"><ele>3250.83</ele><time>2015-03-30T11:02:57Z</time></trkpt><trkpt lat="13.2124347892" lon="37.9738962371"><ele>3252.76</ele><time>2015-03-30T11:03:04Z</time></trkpt><trkpt lat="13.2125551533" lon="37.9744126461"><ele>3254.20</ele><time>2015-03-30T11:03:11Z</time></trkpt><trkpt lat="13.2125265710" lon="37.9744995665"><ele>3254.20</ele><time>2015-03-30T11:03:12Z</time></trkpt><trkpt lat="13.2123250701" lon="37.9749943502"><ele>3255.16</ele><time>2015-03-30T11:03:18Z</time></trkpt><trkpt lat="13.2123083901" lon="37.9753056541"><ele>3256.60</ele><time>2015-03-30T11:03:22Z</time></trkpt><trkpt lat="13.2125290018" lon="37.9761138372"><ele>3261.89</ele><time>2015-03-30T11:03:35Z</time></trkpt><trkpt lat="13.2126218732" lon="37.9770682007"><ele>3268.62</ele><time>2015-03-30T11:03:54Z</time></trkpt><trkpt lat="13.2125047781" lon="37.9775709473"><ele>3272.46</ele><time>2015-03-30T11:04:05Z</time></trkpt><trkpt lat="13.2120484672" lon="37.9780757893"><ele>3276.31</ele><time>2015-03-30T11:04:16Z</time></trkpt><trkpt lat="13.2119728625" lon="37.9783601034"><ele>3278.23</ele><time>2015-03-30T11:04:25Z</time></trkpt><trkpt lat="13.2119841781" lon="37.9784032702"><ele>3278.71</ele><time>2015-03-30T11:04:26Z</time></trkpt><trkpt lat="13.2123198733" lon="37.9790172447"><ele>3281.60</ele><time>2015-03-30T11:04:37Z</time></trkpt><trkpt lat="13.2125322707" lon="37.9799565207"><ele>3283.04</ele><time>2015-03-30T11:04:48Z</time></trkpt><trkpt lat="13.2125420775" lon="37.9801472090"><ele>3283.04</ele><time>2015-03-30T11:04:50Z</time></trkpt><trkpt lat="13.2122681569" lon="37.9807450902"><ele>3280.16</ele><time>2015-03-30T11:04:58Z</time></trkpt><trkpt lat="13.2120229863" lon="37.9809085373"><ele>3279.19</ele><time>2015-03-30T11:05:01Z</time></trkpt><trkpt lat="13.2110085245" lon="37.9811581504"><ele>3272.46</ele><time>2015-03-30T11:05:11Z</time></trkpt><trkpt lat="13.2100117486" lon="37.9811917618"><ele>3262.37</ele><time>2015-03-30T11:05:23Z</time></trkpt><trkpt lat="13.2099316176" lon="37.9812171590"><ele>3261.41</ele><time>2015-03-30T11:05:24Z</time></trkpt><trkpt lat="13.2093510032" lon="37.9818056524"><ele>3252.28</ele><time>2015-03-30T11:05:33Z</time></trkpt><trkpt lat="13.2089808583" lon="37.9828937072"><ele>3244.59</ele><time>2015-03-30T11:05:44Z</time></trkpt><trkpt lat="13.2089596521" lon="37.9829481896"><ele>3243.63</ele><time>2015-03-30T11:05:45Z</time></trkpt><trkpt lat="13.2086824626" lon="37.9829999059"><ele>3238.82</ele><time>2015-03-30T11:05:53Z</time></trkpt><trkpt lat="13.2085442450" lon="37.9824790545"><ele>3234.49</ele><time>2015-03-30T11:06:00Z</time></trkpt><trkpt lat="13.2086862344" lon="37.9819553532"><ele>3230.65</ele><time>2015-03-30T11:06:07Z</time></trkpt><trkpt lat="13.2085395511" lon="37.9818458855"><ele>3227.28</ele><time>2015-03-30T11:06:14Z</time></trkpt><trkpt lat="13.2084604260" lon="37.9819201492"><ele>3226.32</ele><time>2015-03-30T11:06:16Z</time></trkpt><trkpt lat="13.2079974096" lon="37.9824797250"><ele>3222.00</ele><time>2015-03-30T11:06:24Z</time></trkpt><trkpt lat="13.2079136744" lon="37.9829201102"><ele>3218.63</ele><time>2015-03-30T11:06:30Z</time></trkpt><trkpt lat="13.2079565059" lon="37.9830868263"><ele>3217.19</ele><time>2015-03-30T11:06:33Z</time></trkpt><trkpt lat="13.2078129239" lon="37.9834537022"><ele>3214.31</ele><time>2015-03-30T11:06:40Z</time></trkpt><trkpt lat="13.2070497517" lon="37.9839935806"><ele>3209.02</ele><time>2015-03-30T11:06:52Z</time></trkpt><trkpt lat="13.2067957800" lon="37.9845627956"><ele>3202.77</ele><time>2015-03-30T11:07:00Z</time></trkpt><trkpt lat="13.2068108674" lon="37.9846418370"><ele>3202.29</ele><time>2015-03-30T11:07:01Z</time></trkpt><trkpt lat="13.2068467420" lon="37.9848806374"><ele>3199.89</ele><time>2015-03-30T11:07:05Z</time></trkpt><trkpt lat="13.2066218555" lon="37.9851667956"><ele>3194.12</ele><time>2015-03-30T11:07:13Z</time></trkpt><trkpt lat="13.2065126393" lon="37.9851383809"><ele>3192.68</ele><time>2015-03-30T11:07:15Z</time></trkpt><trkpt lat="13.2062890939" lon="37.9850345291"><ele>3189.31</ele><time>2015-03-30T11:07:19Z</time></trkpt><trkpt lat="13.2058290113" lon="37.9850851558"><ele>3184.98</ele><time>2015-03-30T11:07:25Z</time></trkpt><trkpt lat="13.2048168126" lon="37.9856011458"><ele>3175.85</ele><time>2015-03-30T11:07:36Z</time></trkpt><trkpt lat="13.2045737375" lon="37.9861117713"><ele>3169.60</ele><time>2015-03-30T11:07:43Z</time></trkpt><trkpt lat="13.2048514299" lon="37.9863921460"><ele>3164.80</ele><time>2015-03-30T11:07:48Z</time></trkpt><trkpt lat="13.2050923258" lon="37.9864461254"><ele>3162.88</ele><time>2015-03-30T11:07:51Z</time></trkpt><trkpt lat="13.2052523363" lon="37.9867182858"><ele>3156.15</ele><time>2015-03-30T11:07:58Z</time></trkpt><trkpt lat="13.2051344868" lon="37.9868973233"><ele>3153.26</ele><time>2015-03-30T11:08:01Z</time></trkpt><trkpt lat="13.2049421221" lon="37.9871352017"><ele>3149.42</ele><time>2015-03-30T11:08:05Z</time></trkpt><trkpt lat="13.2050391007" lon="37.9875208531"><ele>3143.65</ele><time>2015-03-30T11:08:12Z</time></trkpt><trkpt lat="13.2056629658" lon="37.9876855575"><ele>3138.36</ele><time>2015-03-30T11:08:19Z</time></trkpt><trkpt lat="13.2059463579" lon="37.9876537062"><ele>3136.44</ele><time>2015-03-30T11:08:22Z</time></trkpt><trkpt lat="13.2062229607" lon="37.9873884190"><ele>3133.55</ele><time>2015-03-30T11:08:27Z</time></trkpt><trkpt lat="13.2062756829" lon="37.9872433282"><ele>3132.59</ele><time>2015-03-30T11:08:29Z</time></trkpt><trkpt lat="13.2064622641" lon="37.9870818928"><ele>3129.71</ele><time>2015-03-30T11:08:33Z</time></trkpt><trkpt lat="13.2069465704" lon="37.9869735986"><ele>3125.38</ele><time>2015-03-30T11:08:39Z</time></trkpt><trkpt lat="13.2073725387" lon="37.9871108104"><ele>3120.10</ele><time>2015-03-30T11:08:46Z</time></trkpt><trkpt lat="13.2072893064" lon="37.9875278100"><ele>3116.73</ele><time>2015-03-30T11:08:52Z</time></trkpt><trkpt lat="13.2072269451" lon="37.9876029957"><ele>3116.25</ele><time>2015-03-30T11:08:53Z</time></trkpt><trkpt lat="13.2061842363" lon="37.9884002823"><ele>3108.56</ele><time>2015-03-30T11:09:04Z</time></trkpt><trkpt lat="13.2048596442" lon="37.9889948945"><ele>3101.35</ele><time>2015-03-30T11:09:16Z</time></trkpt><trkpt lat="13.2036329526" lon="37.9893283267"><ele>3095.10</ele><time>2015-03-30T11:09:27Z</time></trkpt><trkpt lat="13.2034313679" lon="37.9893618543"><ele>3093.66</ele><time>2015-03-30T11:09:29Z</time></trkpt><trkpt lat="13.2024749089" lon="37.9898640979"><ele>3089.33</ele><time>2015-03-30T11:09:38Z</time></trkpt><trkpt lat="13.2019207813" lon="37.9902663454"><ele>3086.45</ele><time>2015-03-30T11:09:45Z</time></trkpt><trkpt lat="13.2015890256" lon="37.9908594489"><ele>3085.49</ele><time>2015-03-30T11:09:53Z</time></trkpt><trkpt lat="13.2016942184" lon="37.9914590064"><ele>3086.45</ele><time>2015-03-30T11:10:01Z</time></trkpt><trkpt lat="13.2019496989" lon="37.9915432446"><ele>3086.93</ele><time>2015-03-30T11:10:04Z</time></trkpt><trkpt lat="13.2021558937" lon="37.9915771075"><ele>3087.41</ele><time>2015-03-30T11:10:06Z</time></trkpt><trkpt lat="13.2027867157" lon="37.9919963703"><ele>3090.29</ele><time>2015-03-30T11:10:14Z</time></trkpt><trkpt lat="13.2029561978" lon="37.9920526128"><ele>3090.78</ele><time>2015-03-30T11:10:16Z</time></trkpt><trkpt lat="13.2031318825" lon="37.9920811951"><ele>3090.78</ele><time>2015-03-30T11:10:18Z</time></trkpt><trkpt lat="13.2034089044" lon="37.9922837019"><ele>3091.26</ele><time>2015-03-30T11:10:22Z</time></trkpt><trkpt lat="13.2036894467" lon="37.9926059023"><ele>3090.78</ele><time>2015-03-30T11:10:26Z</time></trkpt><trkpt lat="13.2042141538" lon="37.9928291123"><ele>3090.78</ele><time>2015-03-30T11:10:31Z</time></trkpt><trkpt lat="13.2049928326" lon="37.9929597024"><ele>3092.70</ele><time>2015-03-30T11:10:37Z</time></trkpt><trkpt lat="13.2054136880" lon="37.9932388198"><ele>3093.66</ele><time>2015-03-30T11:10:42Z</time></trkpt><trkpt lat="13.2061730046" lon="37.9940713104"><ele>3103.27</ele><time>2015-03-30T11:10:56Z</time></trkpt><trkpt lat="13.2064975519" lon="37.9948444571"><ele>3111.92</ele><time>2015-03-30T11:11:08Z</time></trkpt><trkpt lat="13.2066941075" lon="37.9950167891"><ele>3113.85</ele><time>2015-03-30T11:11:13Z</time></trkpt><trkpt lat="13.2074560225" lon="37.9952441063"><ele>3120.58</ele><time>2015-03-30T11:11:30Z</time></trkpt><trkpt lat="13.2084732503" lon="37.9958137404"><ele>3125.86</ele><time>2015-03-30T11:11:44Z</time></trkpt><trkpt lat="13.2094446290" lon="37.9966812674"><ele>3130.67</ele><time>2015-03-30T11:11:56Z</time></trkpt><trkpt lat="13.2105482742" lon="37.9975973256"><ele>3141.73</ele><time>2015-03-30T11:12:12Z</time></trkpt><trkpt lat="13.2113579661" lon="37.9983254615"><ele>3151.34</ele><time>2015-03-30T11:12:27Z</time></trkpt><trkpt lat="13.2119394187" lon="37.9985057563"><ele>3159.51</ele><time>2015-03-30T11:12:39Z</time></trkpt><trkpt lat="13.2128349412" lon="37.9985685367"><ele>3167.20</ele><time>2015-03-30T11:12:52Z</time></trkpt><trkpt lat="13.2140483055" lon="37.9986857157"><ele>3177.78</ele><time>2015-03-30T11:13:08Z</time></trkpt><trkpt lat="13.2142036222" lon="37.9987426288"><ele>3178.74</ele><time>2015-03-30T11:13:10Z</time></trkpt><trkpt lat="13.2144866791" lon="37.9991109297"><ele>3181.62</ele><time>2015-03-30T11:13:17Z</time></trkpt><trkpt lat="13.2143676560" lon="37.9993075691"><ele>3183.54</ele><time>2015-03-30T11:13:22Z</time></trkpt><trkpt lat="13.2141970843" lon="37.9994202219"><ele>3185.95</ele><time>2015-03-30T11:13:27Z</time></trkpt><trkpt lat="13.2140473835" lon="37.9995871894"><ele>3188.35</ele><time>2015-03-30T11:13:32Z</time></trkpt><trkpt lat="13.2139589544" lon="37.9997404106"><ele>3189.31</ele><time>2015-03-30T11:13:35Z</time></trkpt><trkpt lat="13.2135215867" lon="38.0000017583"><ele>3193.64</ele><time>2015-03-30T11:13:43Z</time></trkpt><trkpt lat="13.2133970316" lon="38.0000093020"><ele>3195.08</ele><time>2015-03-30T11:13:45Z</time></trkpt><trkpt lat="13.2130742446" lon="38.0003311671"><ele>3200.37</ele><time>2015-03-30T11:13:53Z</time></trkpt><trkpt lat="13.2130756695" lon="38.0005242024"><ele>3202.77</ele><time>2015-03-30T11:13:56Z</time></trkpt><trkpt lat="13.2131713908" lon="38.0011362489"><ele>3209.02</ele><time>2015-03-30T11:14:05Z</time></trkpt><trkpt lat="13.2130934391" lon="38.0014783982"><ele>3211.90</ele><time>2015-03-30T11:14:10Z</time></trkpt><trkpt lat="13.2131982129" lon="38.0017710105"><ele>3216.23</ele><time>2015-03-30T11:14:17Z</time></trkpt><trkpt lat="13.2135988679" lon="38.0016332120"><ele>3221.52</ele><time>2015-03-30T11:14:26Z</time></trkpt><trkpt lat="13.2136536855" lon="38.0015146919"><ele>3222.96</ele><time>2015-03-30T11:14:28Z</time></trkpt><trkpt lat="13.2137600519" lon="38.0011813436"><ele>3225.84</ele><time>2015-03-30T11:14:33Z</time></trkpt><trkpt lat="13.2140267640" lon="38.0009992886"><ele>3227.76</ele><time>2015-03-30T11:14:40Z</time></trkpt><trkpt lat="13.2140441984" lon="38.0013445392"><ele>3228.73</ele><time>2015-03-30T11:14:46Z</time></trkpt><trkpt lat="13.2139920630" lon="38.0015155300"><ele>3229.21</ele><time>2015-03-30T11:14:49Z</time></trkpt><trkpt lat="13.2139539253" lon="38.0018844176"><ele>3231.61</ele><time>2015-03-30T11:14:55Z</time></trkpt><trkpt lat="13.2138212398" lon="38.0021092203"><ele>3233.53</ele><time>2015-03-30T11:14:59Z</time></trkpt><trkpt lat="13.2135178149" lon="38.0023082066"><ele>3236.42</ele><time>2015-03-30T11:15:04Z</time></trkpt><trkpt lat="13.2126679737" lon="38.0025112163"><ele>3242.66</ele><time>2015-03-30T11:15:15Z</time></trkpt><trkpt lat="13.2125964761" lon="38.0025330931"><ele>3243.14</ele><time>2015-03-30T11:15:16Z</time></trkpt><trkpt lat="13.2123507187" lon="38.0025439057"><ele>3245.55</ele><time>2015-03-30T11:15:20Z</time></trkpt><trkpt lat="13.2122411672" lon="38.0025252979"><ele>3246.51</ele><time>2015-03-30T11:15:22Z</time></trkpt><trkpt lat="13.2121142652" lon="38.0027081911"><ele>3248.91</ele><time>2015-03-30T11:15:29Z</time></trkpt><trkpt lat="13.2123822346" lon="38.0029291380"><ele>3249.39</ele><time>2015-03-30T11:15:35Z</time></trkpt><trkpt lat="13.2127498649" lon="38.0031183176"><ele>3249.39</ele><time>2015-03-30T11:15:40Z</time></trkpt><trkpt lat="13.2132303156" lon="38.0036591180"><ele>3246.51</ele><time>2015-03-30T11:15:50Z</time></trkpt><trkpt lat="13.2137308829" lon="38.0043232162"><ele>3240.74</ele><time>2015-03-30T11:16:00Z</time></trkpt><trkpt lat="13.2140652370" lon="38.0053333193"><ele>3234.01</ele><time>2015-03-30T11:16:12Z</time></trkpt><trkpt lat="13.2138933241" lon="38.0063459370"><ele>3229.69</ele><time>2015-03-30T11:16:22Z</time></trkpt><trkpt lat="13.2132502645" lon="38.0075287912"><ele>3224.88</ele><time>2015-03-30T11:16:34Z</time></trkpt><trkpt lat="13.2127886731" lon="38.0081912968"><ele>3220.07</ele><time>2015-03-30T11:16:44Z</time></trkpt><trkpt lat="13.2127385493" lon="38.0082317814"><ele>3219.59</ele><time>2015-03-30T11:16:45Z</time></trkpt><trkpt lat="13.2127804589" lon="38.0084826518"><ele>3215.27</ele><time>2015-03-30T11:16:52Z</time></trkpt><trkpt lat="13.2132562157" lon="38.0083326995"><ele>3212.86</ele><time>2015-03-30T11:16:58Z</time></trkpt><trkpt lat="13.2135281246" lon="38.0079902988"><ele>3212.38</ele><time>2015-03-30T11:17:02Z</time></trkpt><trkpt lat="13.2143495511" lon="38.0066856556"><ele>3208.06</ele><time>2015-03-30T11:17:16Z</time></trkpt><trkpt lat="13.2150105480" lon="38.0061570928"><ele>3205.65</ele><time>2015-03-30T11:17:25Z</time></trkpt><trkpt lat="13.2154573873" lon="38.0062259082"><ele>3203.73</ele><time>2015-03-30T11:17:32Z</time></trkpt><trkpt lat="13.2155168150" lon="38.0063777883"><ele>3203.73</ele><time>2015-03-30T11:17:34Z</time></trkpt><trkpt lat="13.2159062382" lon="38.0075894762"><ele>3206.61</ele><time>2015-03-30T11:17:48Z</time></trkpt><trkpt lat="13.2159358263" lon="38.0077618919"><ele>3207.10</ele><time>2015-03-30T11:17:50Z</time></trkpt><trkpt lat="13.2163289376" lon="38.0081442744"><ele>3206.61</ele><time>2015-03-30T11:17:58Z</time></trkpt><trkpt lat="13.2164023630" lon="38.0081511475"><ele>3206.61</ele><time>2015-03-30T11:17:59Z</time></trkpt><trkpt lat="13.2165465318" lon="38.0081469566"><ele>3206.13</ele><time>2015-03-30T11:18:01Z</time></trkpt><trkpt lat="13.2169159222" lon="38.0084221344"><ele>3204.21</ele><time>2015-03-30T11:18:08Z</time></trkpt><trkpt lat="13.2168708276" lon="38.0091917608"><ele>3198.44</ele><time>2015-03-30T11:18:18Z</time></trkpt><trkpt lat="13.2167427521" lon="38.0093428027"><ele>3197.48</ele><time>2015-03-30T11:18:21Z</time></trkpt><trkpt lat="13.2165425085" lon="38.0095348321"><ele>3196.04</ele><time>2015-03-30T11:18:25Z</time></trkpt><trkpt lat="13.2165287621" lon="38.0099154543"><ele>3194.12</ele><time>2015-03-30T11:18:31Z</time></trkpt><trkpt lat="13.2168364618" lon="38.0100279395"><ele>3193.64</ele><time>2015-03-30T11:18:35Z</time></trkpt><trkpt lat="13.2170578279" lon="38.0100744590"><ele>3193.64</ele><time>2015-03-30T11:18:42Z</time></trkpt><trkpt lat="13.2170012500" lon="38.0100070685"><ele>3195.56</ele><time>2015-03-30T11:19:02Z</time></trkpt><trkpt lat="13.2169752661" lon="38.0099974293"><ele>3196.04</ele><time>2015-03-30T11:19:24Z</time></trkpt><trkpt lat="13.2169772778" lon="38.0099984352"><ele>3196.04</ele><time>2015-03-30T11:19:56Z</time></trkpt><trkpt lat="13.2169823907" lon="38.0100006144"><ele>3197.00</ele><time>2015-03-30T11:20:27Z</time></trkpt><trkpt lat="13.2169876713" lon="38.0100049730"><ele>3197.00</ele><time>2015-03-30T11:20:55Z</time></trkpt><trkpt lat="13.2169897668" lon="38.0100073200"><ele>3196.52</ele><time>2015-03-30T11:21:26Z</time></trkpt><trkpt lat="13.2169934548" lon="38.0100027937"><ele>3196.04</ele><time>2015-03-30T11:21:49Z</time></trkpt><trkpt lat="13.2169906888" lon="38.0100073200"><ele>3195.56</ele><time>2015-03-30T11:22:08Z</time></trkpt><trkpt lat="13.2169536408" lon="38.0100063141"><ele>3196.52</ele><time>2015-03-30T11:22:23Z</time></trkpt><trkpt lat="13.2169562392" lon="38.0099803302"><ele>3197.48</ele><time>2015-03-30T11:22:35Z</time></trkpt><trkpt lat="13.2169451751" lon="38.0099784024"><ele>3197.00</ele><time>2015-03-30T11:22:48Z</time></trkpt><trkpt lat="13.2169440016" lon="38.0099819228"><ele>3196.52</ele><time>2015-03-30T11:22:58Z</time></trkpt><trkpt lat="13.2170060277" lon="38.0099810008"><ele>3196.52</ele><time>2015-03-30T11:23:14Z</time></trkpt></trkseg></trk></gpx>